| time (UTC) | temp F | wind direction | speed knots | gust knots | rain 1hr in | rain 24hr in | rain mn in | humidity % | barometer mb |
| 20260502181921 | 60 | 45 | 13.9 | 0.0 | 0.00 | 0.00 | 0.00 | 71 | 927.6 |
| 20260502181813 | 60 | 0 | 21.7 | 0.0 | 0.00 | 0.00 | 0.00 | 71 | 927.7 |
| 20260502181704 | 60 | 0 | 21.7 | 0.0 | 0.00 | 0.00 | 0.00 | 71 | 927.6 |
| 20260502181556 | 61 | 0 | 4.3 | 0.0 | 0.00 | 0.00 | 0.00 | 71 | 927.6 |
| 20260502181447 | 61 | 0 | 20.0 | 0.0 | 0.00 | 0.00 | 0.00 | 71 | 927.6 |
| 20260502181339 | 61 | 0 | 29.5 | 0.0 | 0.00 | 0.00 | 0.00 | 71 | 927.6 |
| 20260502181230 | 61 | 0 | 1.7 | 0.0 | 0.00 | 0.00 | 0.00 | 71 | 927.5 |
| 20260502181122 | 61 | 45 | 20.0 | 0.0 | 0.00 | 0.00 | 0.00 | 71 | 927.6 |
| 20260502181013 | 61 | 0 | 29.5 | 0.0 | 0.00 | 0.00 | 0.00 | 71 | 927.6 |
| 20260502180905 | 61 | 45 | 31.3 | 0.0 | 0.00 | 0.00 | 0.00 | 71 | 927.6 |
| 20260502180757 | 61 | 0 | 20.0 | 0.0 | 0.00 | 0.00 | 0.00 | 70 | 927.6 |
| 20260502180648 | 61 | 0 | 6.1 | 0.0 | 0.00 | 0.00 | 0.00 | 70 | 927.6 |
| 20260502180540 | 62 | 270 | 25.2 | 0.0 | 0.00 | 0.00 | 0.00 | 70 | 927.6 |
| 20260502180431 | 62 | 315 | 15.6 | 0.0 | 0.00 | 0.00 | 0.00 | 70 | 927.5 |
| 20260502180323 | 62 | 0 | 31.3 | 0.0 | 0.00 | 0.00 | 0.00 | 70 | 927.5 |
| 20260502180214 | 62 | 45 | 22.6 | 0.0 | 0.00 | 0.00 | 0.00 | 70 | 927.5 |
| 20260502180106 | 62 | 315 | 4.3 | 0.0 | 0.00 | 0.00 | 0.00 | 70 | 927.6 |
| 20260502170512 | 69 | 0 | 12.2 | 0.0 | 0.00 | 0.00 | 0.00 | 66 | 927.4 |
| 20260502170404 | 69 | 45 | 12.2 | 0.0 | 0.00 | 0.00 | 0.00 | 66 | 927.4 |
| 20260502170256 | 69 | 270 | 16.5 | 0.0 | 0.00 | 0.00 | 0.00 | 65 | 927.4 |
| 20260502170147 | 70 | 45 | 4.3 | 0.0 | 0.00 | 0.00 | 0.00 | 65 | 927.4 |
| 20260502164332 | 85 | 45 | 13.0 | 0.0 | 0.00 | 0.00 | 0.00 | 55 | 927.0 |
| 20260502164224 | 87 | 315 | 17.4 | 0.0 | 0.00 | 0.00 | 0.00 | 54 | 927.1 |
| 20260502164115 | 89 | 90 | 25.2 | 0.0 | 0.00 | 0.00 | 0.00 | 52 | 927.0 |
| 20260502164007 | 92 | 270 | 11.3 | 0.0 | 0.00 | 0.00 | 0.00 | 51 | 927.0 |
| 20260502163858 | 94 | 90 | 18.2 | 0.0 | 0.00 | 0.00 | 0.00 | 49 | 927.0 |
| 20260502163750 | 97 | 315 | 44.3 | 0.0 | 0.00 | 0.00 | 0.00 | 48 | 927.0 |
| 20260502163642 | 99 | 0 | 14.8 | 0.0 | 0.00 | 0.00 | 0.00 | 47 | 926.9 |
| 20260502163533 | 101 | 45 | 27.8 | 0.0 | 0.00 | 0.00 | 0.00 | 46 | 926.9 |
| 20260502163424 | 102 | 45 | 14.8 | 0.0 | 0.00 | 0.00 | 0.00 | 46 | 926.9 |
| 20260502163316 | 103 | 315 | 37.4 | 0.0 | 0.00 | 0.00 | 0.00 | 45 | 927.0 |
| 20260502163208 | 104 | 90 | 36.5 | 0.0 | 0.00 | 0.00 | 0.00 | 44 | 927.0 |
| 20260502163059 | 104 | 0 | 36.5 | 0.0 | 0.00 | 0.00 | 0.00 | 44 | 927.0 |
| 20260502162951 | 104 | 0 | 24.3 | 0.0 | 0.00 | 0.00 | 0.00 | 44 | 926.9 |
| 20260502162842 | 104 | 0 | 46.9 | 0.0 | 0.00 | 0.00 | 0.00 | 44 | 927.0 |
| 20260502162734 | 103 | 0 | 27.8 | 0.0 | 0.00 | 0.00 | 0.00 | 44 | 927.0 |
| 20260502162625 | 103 | 315 | 31.3 | 0.0 | 0.00 | 0.00 | 0.00 | 45 | 927.0 |
| 20260502162517 | 102 | 45 | 20.9 | 0.0 | 0.00 | 0.00 | 0.00 | 45 | 927.0 |
| 20260502162408 | 102 | 315 | 22.6 | 0.0 | 0.00 | 0.00 | 0.00 | 45 | 927.0 |
| 20260502162300 | 102 | 45 | 26.1 | 0.0 | 0.00 | 0.00 | 0.00 | 45 | 927.0 |
| 20260502162152 | 102 | 45 | 12.2 | 0.0 | 0.00 | 0.00 | 0.00 | 45 | 927.0 |
| 20260502162043 | 102 | 45 | 45.2 | 0.0 | 0.00 | 0.00 | 0.00 | 45 | 927.1 |
| 20260502161936 | 103 | 0 | 30.4 | 0.0 | 0.00 | 0.00 | 0.00 | 45 | 927.0 |
| 20260502161826 | 103 | 45 | 12.2 | 0.0 | 0.00 | 0.00 | 0.00 | 45 | 927.0 |
| 20260502161718 | 104 | 45 | 12.2 | 0.0 | 0.00 | 0.00 | 0.00 | 45 | 927.1 |
| 20260502161609 | 104 | 0 | 25.2 | 0.0 | 0.00 | 0.00 | 0.00 | 44 | 927.1 |
| 20260502161501 | 105 | 45 | 1.7 | 0.0 | 0.00 | 0.00 | 0.00 | 44 | 927.1 |
| 20260502161353 | 105 | 315 | 41.7 | 0.0 | 0.00 | 0.00 | 0.00 | 43 | 927.1 |
| 20260502161244 | 106 | 0 | 51.3 | 0.0 | 0.00 | 0.00 | 0.00 | 43 | 927.0 |
| 20260502161136 | 106 | 45 | 33.0 | 0.0 | 0.00 | 0.00 | 0.00 | 43 | 927.0 |
| 20260502161027 | 106 | 0 | 19.1 | 0.0 | 0.00 | 0.00 | 0.00 | 43 | 927.1 |
| 20260502160919 | 106 | 315 | 40.8 | 0.0 | 0.00 | 0.00 | 0.00 | 43 | 927.1 |
| 20260502160810 | 106 | 315 | 61.7 | 0.0 | 0.00 | 0.00 | 0.00 | 42 | 927.1 |
| 20260502160702 | 107 | 45 | 32.2 | 0.0 | 0.00 | 0.00 | 0.00 | 42 | 927.0 |
| 20260502160553 | 108 | 45 | 53.9 | 0.0 | 0.00 | 0.00 | 0.00 | 42 | 927.0 |
| 20260502160445 | 108 | 45 | 39.1 | 0.0 | 0.00 | 0.00 | 0.00 | 41 | 927.0 |
| 20260502160337 | 109 | 45 | 22.6 | 0.0 | 0.00 | 0.00 | 0.00 | 41 | 926.9 |
| 20260502160228 | 110 | 315 | 23.5 | 0.0 | 0.00 | 0.00 | 0.00 | 41 | 927.0 |
| 20260502160120 | 110 | 45 | 26.1 | 0.0 | 0.00 | 0.00 | 0.00 | 41 | 927.0 |
| 20260502152341 | 120 | 0 | 45.2 | 0.0 | 0.00 | 0.00 | 0.00 | 36 | 927.2 |
| 20260502152233 | 120 | 45 | 46.9 | 0.0 | 0.00 | 0.00 | 0.00 | 36 | 927.2 |
| 20260502152124 | 121 | 315 | 34.8 | 0.0 | 0.00 | 0.00 | 0.00 | 36 | 927.2 |
| 20260502152016 | 121 | 0 | 30.4 | 0.0 | 0.00 | 0.00 | 0.00 | 36 | 927.3 |
| 20260502151907 | 121 | 0 | 36.5 | 0.0 | 0.00 | 0.00 | 0.00 | 36 | 927.3 |
| 20260502151759 | 122 | 0 | 67.8 | 0.0 | 0.00 | 0.00 | 0.00 | 36 | 927.3 |
| 20260502151542 | 122 | 0 | 56.5 | 0.0 | 0.00 | 0.00 | 0.00 | 35 | 927.4 |
| 20260502151434 | 123 | 315 | 58.2 | 0.0 | 0.00 | 0.00 | 0.00 | 35 | 927.4 |
| 20260502151325 | 123 | 45 | 56.5 | 0.0 | 0.00 | 0.00 | 0.00 | 35 | 927.3 |
| 20260502151217 | 124 | 315 | 40.8 | 0.0 | 0.00 | 0.00 | 0.00 | 35 | 927.3 |
| 20260502151108 | 124 | 0 | 63.4 | 0.0 | 0.00 | 0.00 | 0.00 | 35 | 927.3 |
| 20260502151000 | 124 | 0 | 40.8 | 0.0 | 0.00 | 0.00 | 0.00 | 36 | 927.3 |
| 20260502150851 | 124 | 45 | 10.4 | 0.0 | 0.00 | 0.00 | 0.00 | 36 | 927.4 |
| 20260502150743 | 124 | 270 | 25.2 | 0.0 | 0.00 | 0.00 | 0.00 | 36 | 927.4 |
| 20260502150635 | 124 | 0 | 35.6 | 0.0 | 0.00 | 0.00 | 0.00 | 36 | 927.3 |
| 20260502150418 | 124 | 0 | 49.5 | 0.0 | 0.00 | 0.00 | 0.00 | 36 | 927.3 |
| 20260502150309 | 124 | 0 | 20.9 | 0.0 | 0.00 | 0.00 | 0.00 | 36 | 927.4 |
| 20260502150201 | 124 | 45 | 26.9 | 0.0 | 0.00 | 0.00 | 0.00 | 36 | 927.4 |
| 20260502130648 | 137 | 225 | 38.2 | 0.0 | 0.00 | 0.00 | 0.00 | 33 | 929.1 |
| 20260502130540 | 138 | 135 | 6.1 | 0.0 | 0.00 | 0.00 | 0.00 | 34 | 929.2 |
| 20260502130431 | 138 | 90 | 30.4 | 0.0 | 0.00 | 0.00 | 0.00 | 34 | 929.1 |
| 20260502130323 | 138 | 225 | 7.0 | 0.0 | 0.00 | 0.00 | 0.00 | 35 | 929.1 |
| 20260502130214 | 138 | 90 | 20.0 | 0.0 | 0.00 | 0.00 | 0.00 | 34 | 929.1 |
| 20260502130106 | 138 | 135 | 7.0 | 0.0 | 0.00 | 0.00 | 0.00 | 34 | 929.1 |
| 20260502123709 | 131 | 135 | 22.6 | 0.0 | 0.00 | 0.00 | 0.00 | 35 | 929.4 |
| 20260502123601 | 131 | 180 | 26.1 | 0.0 | 0.00 | 0.00 | 0.00 | 35 | 929.4 |
| 20260502123452 | 131 | 45 | 13.9 | 0.0 | 0.00 | 0.00 | 0.00 | 35 | 929.4 |
| 20260502123343 | 130 | 45 | 17.4 | 0.0 | 0.00 | 0.00 | 0.00 | 36 | 929.5 |
| 20260502123235 | 130 | 90 | 7.8 | 0.0 | 0.00 | 0.00 | 0.00 | 36 | 929.4 |
| 20260502123127 | 129 | 135 | 30.4 | 0.0 | 0.00 | 0.00 | 0.00 | 35 | 929.5 |
| 20260502123018 | 129 | 225 | 33.0 | 0.0 | 0.00 | 0.00 | 0.00 | 35 | 929.5 |
| 20260502122910 | 129 | 180 | 35.6 | 0.0 | 0.00 | 0.00 | 0.00 | 35 | 929.5 |
| 20260502122801 | 129 | 225 | 24.3 | 0.0 | 0.00 | 0.00 | 0.00 | 36 | 929.5 |
| 20260502122653 | 129 | 135 | 34.8 | 0.0 | 0.00 | 0.00 | 0.00 | 36 | 929.6 |
| 20260502122544 | 128 | 315 | 7.8 | 0.0 | 0.00 | 0.00 | 0.00 | 36 | 929.5 |
| 20260502122436 | 128 | 270 | 28.7 | 0.0 | 0.00 | 0.00 | 0.00 | 36 | 929.5 |
| 20260502122327 | 128 | 225 | 40.8 | 0.0 | 0.00 | 0.00 | 0.00 | 36 | 929.6 |
| 20260502122219 | 128 | 180 | 42.6 | 0.0 | 0.00 | 0.00 | 0.00 | 36 | 929.6 |
| 20260502122111 | 128 | 90 | 7.8 | 0.0 | 0.00 | 0.00 | 0.00 | 37 | 929.5 |
| 20260502122002 | 128 | 270 | 16.5 | 0.0 | 0.00 | 0.00 | 0.00 | 36 | 929.6 |
| 20260502121854 | 128 | 180 | 22.6 | 0.0 | 0.00 | 0.00 | 0.00 | 36 | 929.6 |
| 20260502121745 | 128 | 135 | 46.1 | 0.0 | 0.00 | 0.00 | 0.00 | 36 | 929.6 |
| 20260502121637 | 127 | 90 | 14.8 | 0.0 | 0.00 | 0.00 | 0.00 | 37 | 929.7 |
| 20260502121528 | 127 | 180 | 4.3 | 0.0 | 0.00 | 0.00 | 0.00 | 37 | 929.6 |
| 20260502121420 | 127 | 225 | 20.9 | 0.0 | 0.00 | 0.00 | 0.00 | 37 | 929.6 |
| 20260502121311 | 126 | 90 | 20.0 | 0.0 | 0.00 | 0.00 | 0.00 | 37 | 929.7 |
| 20260502121203 | 126 | 225 | 26.1 | 0.0 | 0.00 | 0.00 | 0.00 | 36 | 929.7 |
| 20260502121055 | 126 | 135 | 25.2 | 0.0 | 0.00 | 0.00 | 0.00 | 36 | 929.7 |
| 20260502120946 | 126 | 90 | 13.0 | 0.0 | 0.00 | 0.00 | 0.00 | 36 | 929.7 |
| 20260502120838 | 126 | 180 | 46.9 | 0.0 | 0.00 | 0.00 | 0.00 | 36 | 929.7 |
| 20260502120729 | 126 | 225 | 6.1 | 0.0 | 0.00 | 0.00 | 0.00 | 37 | 929.7 |
| 20260502120621 | 126 | 315 | 4.3 | 0.0 | 0.00 | 0.00 | 0.00 | 37 | 929.7 |
| 20260502120512 | 126 | 180 | 46.1 | 0.0 | 0.00 | 0.00 | 0.00 | 37 | 929.8 |
| 20260502120404 | 126 | 225 | 57.4 | 0.0 | 0.00 | 0.00 | 0.00 | 37 | 929.8 |
| 20260502120256 | 127 | 180 | 45.2 | 0.0 | 0.00 | 0.00 | 0.00 | 37 | 929.8 |
| 20260502120147 | 127 | 180 | 25.2 | 0.0 | 0.00 | 0.00 | 0.00 | 38 | 929.8 |
| 20260502115930 | 126 | 135 | 25.2 | 0.0 | 0.00 | 0.00 | 0.00 | 38 | 929.8 |
| 20260502115822 | 126 | 90 | 6.1 | 0.0 | 0.00 | 0.00 | 0.00 | 38 | 929.8 |
| 20260502115713 | 126 | 45 | 32.2 | 0.0 | 0.00 | 0.00 | 0.00 | 38 | 929.9 |
| 20260502115605 | 126 | 90 | 23.5 | 0.0 | 0.00 | 0.00 | 0.00 | 39 | 929.9 |
| 20260502115456 | 125 | 90 | 14.8 | 0.0 | 0.00 | 0.00 | 0.00 | 39 | 929.9 |
| 20260502115348 | 125 | 45 | 24.3 | 0.0 | 0.00 | 0.00 | 0.00 | 39 | 929.9 |
| 20260502115240 | 124 | 135 | 12.2 | 0.0 | 0.00 | 0.00 | 0.00 | 40 | 930.0 |
| 20260502115131 | 124 | 45 | 9.6 | 0.0 | 0.00 | 0.00 | 0.00 | 40 | 929.9 |
| 20260502115023 | 123 | 225 | 8.7 | 0.0 | 0.00 | 0.00 | 0.00 | 40 | 930.0 |
| 20260502114914 | 123 | 0 | 40.8 | 0.0 | 0.00 | 0.00 | 0.00 | 39 | 930.0 |
| 20260502114806 | 123 | 135 | 56.5 | 0.0 | 0.00 | 0.00 | 0.00 | 40 | 930.0 |
| 20260502114657 | 123 | 180 | 20.9 | 0.0 | 0.00 | 0.00 | 0.00 | 40 | 930.0 |
| 20260502114549 | 122 | 225 | 9.6 | 0.0 | 0.00 | 0.00 | 0.00 | 40 | 930.0 |
| 20260502114440 | 122 | 315 | 32.2 | 0.0 | 0.00 | 0.00 | 0.00 | 40 | 930.0 |
| 20260502114224 | 122 | 180 | 11.3 | 0.0 | 0.00 | 0.00 | 0.00 | 40 | 930.0 |
| 20260502114115 | 122 | 225 | 27.8 | 0.0 | 0.00 | 0.00 | 0.00 | 40 | 930.1 |
| 20260502114007 | 122 | 225 | 26.1 | 0.0 | 0.00 | 0.00 | 0.00 | 41 | 930.1 |
| 20260502113858 | 121 | 180 | 15.6 | 0.0 | 0.00 | 0.00 | 0.00 | 42 | 930.1 |
| 20260502113750 | 121 | 135 | 17.4 | 0.0 | 0.00 | 0.00 | 0.00 | 42 | 930.1 |
| 20260502113641 | 120 | 90 | 27.8 | 0.0 | 0.00 | 0.00 | 0.00 | 43 | 930.1 |
| 20260502113533 | 120 | 180 | 6.1 | 0.0 | 0.00 | 0.00 | 0.00 | 42 | 930.1 |
| 20260502113424 | 119 | 135 | 6.1 | 0.0 | 0.00 | 0.00 | 0.00 | 42 | 930.1 |
| 20260502113316 | 119 | 135 | 30.4 | 0.0 | 0.00 | 0.00 | 0.00 | 43 | 930.2 |
| 20260502113208 | 118 | 180 | 22.6 | 0.0 | 0.00 | 0.00 | 0.00 | 43 | 930.2 |
| 20260502113059 | 117 | 0 | 21.7 | 0.0 | 0.00 | 0.00 | 0.00 | 43 | 930.2 |
| 20260502112951 | 117 | 45 | 8.7 | 0.0 | 0.00 | 0.00 | 0.00 | 42 | 930.2 |
| 20260502112842 | 117 | 90 | 19.1 | 0.0 | 0.00 | 0.00 | 0.00 | 42 | 930.2 |
| 20260502112734 | 117 | 135 | 26.9 | 0.0 | 0.00 | 0.00 | 0.00 | 43 | 930.2 |
| 20260502112625 | 117 | 180 | 13.9 | 0.0 | 0.00 | 0.00 | 0.00 | 43 | 930.3 |
| 20260502112517 | 116 | 180 | 22.6 | 0.0 | 0.00 | 0.00 | 0.00 | 43 | 930.3 |
| 20260502112408 | 116 | 45 | 22.6 | 0.0 | 0.00 | 0.00 | 0.00 | 43 | 930.2 |
| 20260502112300 | 116 | 135 | 57.4 | 0.0 | 0.00 | 0.00 | 0.00 | 43 | 930.3 |
| 20260502112152 | 116 | 180 | 30.4 | 0.0 | 0.00 | 0.00 | 0.00 | 44 | 930.3 |
| 20260502112043 | 116 | 180 | 24.3 | 0.0 | 0.00 | 0.00 | 0.00 | 44 | 930.3 |
| 20260502111936 | 116 | 90 | 16.5 | 0.0 | 0.00 | 0.00 | 0.00 | 44 | 930.3 |
| 20260502111826 | 116 | 180 | 32.2 | 0.0 | 0.00 | 0.00 | 0.00 | 44 | 930.3 |
| 20260502111718 | 116 | 180 | 18.2 | 0.0 | 0.00 | 0.00 | 0.00 | 45 | 930.3 |
| 20260502111609 | 116 | 180 | 35.6 | 0.0 | 0.00 | 0.00 | 0.00 | 45 | 930.4 |
| 20260502111501 | 116 | 180 | 13.9 | 0.0 | 0.00 | 0.00 | 0.00 | 46 | 930.4 |
| 20260502111353 | 115 | 45 | 20.0 | 0.0 | 0.00 | 0.00 | 0.00 | 46 | 930.3 |
| 20260502111244 | 115 | 135 | 31.3 | 0.0 | 0.00 | 0.00 | 0.00 | 46 | 930.4 |
| 20260502111136 | 115 | 90 | 14.8 | 0.0 | 0.00 | 0.00 | 0.00 | 47 | 930.3 |
| 20260502111027 | 114 | 135 | 6.1 | 0.0 | 0.00 | 0.00 | 0.00 | 47 | 930.3 |
| 20260502110919 | 114 | 0 | 26.9 | 0.0 | 0.00 | 0.00 | 0.00 | 47 | 930.3 |
| 20260502110810 | 114 | 135 | 31.3 | 0.0 | 0.00 | 0.00 | 0.00 | 47 | 930.4 |
| 20260502110702 | 114 | 135 | 45.2 | 0.0 | 0.00 | 0.00 | 0.00 | 47 | 930.4 |
| 20260502110553 | 114 | 180 | 18.2 | 0.0 | 0.00 | 0.00 | 0.00 | 47 | 930.3 |
| 20260502110445 | 114 | 135 | 30.4 | 0.0 | 0.00 | 0.00 | 0.00 | 47 | 930.4 |
| 20260502110337 | 115 | 180 | 23.5 | 0.0 | 0.00 | 0.00 | 0.00 | 48 | 930.4 |
| 20260502110228 | 115 | 135 | 22.6 | 0.0 | 0.00 | 0.00 | 0.00 | 48 | 930.4 |
| 20260502110120 | 115 | 180 | 39.1 | 0.0 | 0.00 | 0.00 | 0.00 | 49 | 930.3 |
| 20260502110011 | 116 | 135 | 26.9 | 0.0 | 0.00 | 0.00 | 0.00 | 50 | 930.4 |
| 20260502105903 | 116 | 135 | 11.3 | 0.0 | 0.00 | 0.00 | 0.00 | 51 | 930.4 |
| 20260502105754 | 116 | 135 | 37.4 | 0.0 | 0.00 | 0.00 | 0.00 | 52 | 930.5 |
| 20260502105646 | 115 | 135 | 7.8 | 0.0 | 0.00 | 0.00 | 0.00 | 53 | 930.5 |
| 20260502105537 | 115 | 315 | 33.0 | 0.0 | 0.00 | 0.00 | 0.00 | 53 | 930.5 |
| 20260502105429 | 114 | 0 | 8.7 | 0.0 | 0.00 | 0.00 | 0.00 | 53 | 930.4 |
| 20260502105321 | 114 | 0 | 10.4 | 0.0 | 0.00 | 0.00 | 0.00 | 53 | 930.4 |
| 20260502105212 | 113 | 315 | 17.4 | 0.0 | 0.00 | 0.00 | 0.00 | 53 | 930.4 |
| 20260502105104 | 113 | 45 | 10.4 | 0.0 | 0.00 | 0.00 | 0.00 | 55 | 930.5 |
| 20260502104955 | 112 | 45 | 7.0 | 0.0 | 0.00 | 0.00 | 0.00 | 55 | 930.5 |
| 20260502104847 | 111 | 0 | 5.2 | 0.0 | 0.00 | 0.00 | 0.00 | 56 | 930.5 |
| 20260502104738 | 110 | 135 | 8.7 | 0.0 | 0.00 | 0.00 | 0.00 | 56 | 930.6 |
| 20260502104630 | 109 | 225 | 7.8 | 0.0 | 0.00 | 0.00 | 0.00 | 56 | 930.6 |
| 20260502104522 | 108 | 180 | 15.6 | 0.0 | 0.00 | 0.00 | 0.00 | 55 | 930.6 |
| 20260502104413 | 107 | 225 | 38.2 | 0.0 | 0.00 | 0.00 | 0.00 | 56 | 930.7 |
| 20260502104305 | 107 | 135 | 11.3 | 0.0 | 0.00 | 0.00 | 0.00 | 56 | 930.7 |
| 20260502104156 | 106 | 90 | 23.5 | 0.0 | 0.00 | 0.00 | 0.00 | 57 | 930.7 |
| 20260502104048 | 106 | 90 | 9.6 | 0.0 | 0.00 | 0.00 | 0.00 | 59 | 930.7 |
| 20260502103939 | 105 | 0 | 6.1 | 0.0 | 0.00 | 0.00 | 0.00 | 59 | 930.7 |
| 20260502103831 | 104 | 0 | 31.3 | 0.0 | 0.00 | 0.00 | 0.00 | 58 | 930.7 |
| 20260502103722 | 103 | 225 | 21.7 | 0.0 | 0.00 | 0.00 | 0.00 | 57 | 930.8 |
| 20260502103614 | 103 | 180 | 35.6 | 0.0 | 0.00 | 0.00 | 0.00 | 57 | 930.8 |
| 20260502103506 | 102 | 180 | 1.7 | 0.0 | 0.00 | 0.00 | 0.00 | 58 | 930.8 |
| 20260502103357 | 102 | 135 | 33.0 | 0.0 | 0.00 | 0.00 | 0.00 | 57 | 930.8 |
| 20260502103249 | 102 | 225 | 21.7 | 0.0 | 0.00 | 0.00 | 0.00 | 57 | 930.8 |
| 20260502103140 | 102 | 180 | 39.1 | 0.0 | 0.00 | 0.00 | 0.00 | 57 | 930.8 |
| 20260502103032 | 102 | 225 | 50.4 | 0.0 | 0.00 | 0.00 | 0.00 | 59 | 930.8 |
| 20260502102923 | 102 | 135 | 0.9 | 0.0 | 0.00 | 0.00 | 0.00 | 60 | 930.9 |
| 20260502102815 | 102 | 45 | 16.5 | 0.0 | 0.00 | 0.00 | 0.00 | 59 | 930.8 |
| 20260502102706 | 102 | 180 | 26.9 | 0.0 | 0.00 | 0.00 | 0.00 | 59 | 930.8 |
| 20260502102558 | 102 | 135 | 40.8 | 0.0 | 0.00 | 0.00 | 0.00 | 59 | 930.9 |
| 20260502102450 | 101 | 180 | 30.4 | 0.0 | 0.00 | 0.00 | 0.00 | 59 | 930.8 |
| 20260502102341 | 101 | 180 | 54.7 | 0.0 | 0.00 | 0.00 | 0.00 | 59 | 930.9 |
| 20260502102233 | 101 | 180 | 54.7 | 0.0 | 0.00 | 0.00 | 0.00 | 59 | 930.8 |
| 20260502102124 | 101 | 225 | 40.8 | 0.0 | 0.00 | 0.00 | 0.00 | 60 | 930.9 |
| 20260502102016 | 101 | 135 | 23.5 | 0.0 | 0.00 | 0.00 | 0.00 | 61 | 930.9 |
| 20260502101907 | 101 | 90 | 12.2 | 0.0 | 0.00 | 0.00 | 0.00 | 61 | 930.9 |
| 20260502101759 | 100 | 135 | 31.3 | 0.0 | 0.00 | 0.00 | 0.00 | 60 | 930.9 |
| 20260502101650 | 100 | 135 | 13.9 | 0.0 | 0.00 | 0.00 | 0.00 | 60 | 930.9 |
| 20260502101542 | 101 | 225 | 15.6 | 0.0 | 0.00 | 0.00 | 0.00 | 60 | 930.9 |
| 20260502101434 | 100 | 135 | 21.7 | 0.0 | 0.00 | 0.00 | 0.00 | 61 | 931.0 |
| 20260502101325 | 100 | 180 | 19.1 | 0.0 | 0.00 | 0.00 | 0.00 | 61 | 931.0 |
| 20260502101217 | 10 | 90 | 13.9 | 0.0 | 0.00 | 0.00 | 0.00 | 61 | 930.9 |
| 20260502101000 | 99 | 180 | 24.3 | 0.0 | 0.00 | 0.00 | 0.00 | 61 | 931.0 |
| 20260502100851 | 99 | 135 | 40.0 | 0.0 | 0.00 | 0.00 | 0.00 | 61 | 930.9 |
| 20260502100743 | 99 | 180 | 30.4 | 0.0 | 0.00 | 0.00 | 0.00 | 61 | 931.0 |
| 20260502100634 | 99 | 180 | 28.7 | 0.0 | 0.00 | 0.00 | 0.00 | 61 | 931.0 |
| 20260502100526 | 99 | 180 | 13.0 | 0.0 | 0.00 | 0.00 | 0.00 | 61 | 931.0 |
| 20260502100418 | 98 | 135 | 33.9 | 0.0 | 0.00 | 0.00 | 0.00 | 62 | 931.0 |
| 20260502100310 | 98 | 180 | 8.7 | 0.0 | 0.00 | 0.00 | 0.00 | 63 | 931.0 |
| 20260502100201 | 97 | 180 | 2.6 | 0.0 | 0.00 | 0.00 | 0.00 | 63 | 931.1 |
| 20260502091515 | 91 | 135 | 6.1 | 0.0 | 0.00 | 0.00 | 0.00 | 63 | 931.5 |
| 20260502091406 | 91 | 90 | 20.0 | 0.0 | 0.00 | 0.00 | 0.00 | 63 | 931.5 |
| 20260502091258 | 91 | 135 | 31.3 | 0.0 | 0.00 | 0.00 | 0.00 | 63 | 931.6 |
| 20260502091149 | 91 | 225 | 23.5 | 0.0 | 0.00 | 0.00 | 0.00 | 63 | 931.6 |
| 20260502091041 | 91 | 180 | 28.7 | 0.0 | 0.00 | 0.00 | 0.00 | 63 | 931.5 |
| 20260502090932 | 91 | 135 | 16.5 | 0.0 | 0.00 | 0.00 | 0.00 | 63 | 931.6 |
| 20260502090824 | 91 | 45 | 5.2 | 0.0 | 0.00 | 0.00 | 0.00 | 63 | 931.6 |
| 20260502090716 | 91 | 180 | 20.0 | 0.0 | 0.00 | 0.00 | 0.00 | 63 | 931.5 |
| 20260502090607 | 91 | 135 | 3.5 | 0.0 | 0.00 | 0.00 | 0.00 | 63 | 931.6 |
| 20260502090459 | 91 | 135 | 2.6 | 0.0 | 0.00 | 0.00 | 0.00 | 63 | 931.6 |
| 20260502090350 | 91 | 180 | 19.1 | 0.0 | 0.00 | 0.00 | 0.00 | 63 | 931.6 |
| 20260502090242 | 92 | 180 | 10.4 | 0.0 | 0.00 | 0.00 | 0.00 | 63 | 931.6 |
| 20260502090133 | 92 | 45 | 21.7 | 0.0 | 0.00 | 0.00 | 0.00 | 63 | 931.6 |
| 20260502080106 | 78 | 315 | 21.7 | 0.0 | 0.00 | 0.00 | 0.00 | 63 | 931.9 |
| 20260502071528 | 70 | 0 | 35.6 | 0.0 | 0.00 | 0.00 | 0.00 | 66 | 932.3 |
| 20260502071420 | 69 | 0 | 26.9 | 0.0 | 0.00 | 0.00 | 0.00 | 66 | 932.3 |
| 20260502071311 | 69 | 0 | 20.9 | 0.0 | 0.00 | 0.00 | 0.00 | 66 | 932.4 |
| 20260502071203 | 69 | 0 | 28.7 | 0.0 | 0.00 | 0.00 | 0.00 | 66 | 932.4 |
| 20260502071055 | 69 | 45 | 34.8 | 0.0 | 0.00 | 0.00 | 0.00 | 66 | 932.4 |
| 20260502070946 | 69 | 0 | 24.3 | 0.0 | 0.00 | 0.00 | 0.00 | 66 | 932.4 |
| 20260502070838 | 68 | 0 | 24.3 | 0.0 | 0.00 | 0.00 | 0.00 | 66 | 932.4 |
| 20260502070729 | 68 | 0 | 40.0 | 0.0 | 0.00 | 0.00 | 0.00 | 66 | 932.4 |
| 20260502070621 | 68 | 0 | 12.2 | 0.0 | 0.00 | 0.00 | 0.00 | 66 | 932.4 |
| 20260502070512 | 68 | 0 | 46.1 | 0.0 | 0.00 | 0.00 | 0.00 | 66 | 932.5 |
| 20260502070404 | 68 | 45 | 27.8 | 0.0 | 0.00 | 0.00 | 0.00 | 66 | 932.4 |
| 20260502070255 | 67 | 0 | 60.0 | 0.0 | 0.00 | 0.00 | 0.00 | 66 | 932.4 |
| 20260502070147 | 67 | 315 | 38.2 | 0.0 | 0.00 | 0.00 | 0.00 | 66 | 932.4 |
| 20260502070039 | 67 | 0 | 19.1 | 0.0 | 0.00 | 0.00 | 0.00 | 66 | 932.5 |
| 20260502065930 | 67 | 45 | 20.0 | 0.0 | 0.00 | 0.00 | 0.00 | 66 | 932.4 |
| 20260502065822 | 67 | 0 | 40.8 | 0.0 | 0.00 | 0.00 | 0.00 | 67 | 932.4 |
| 20260502065713 | 67 | 0 | 31.3 | 0.0 | 0.00 | 0.00 | 0.00 | 67 | 932.4 |
| 20260502065605 | 66 | 0 | 29.5 | 0.0 | 0.00 | 0.00 | 0.00 | 67 | 932.4 |
| 20260502065456 | 66 | 0 | 42.6 | 0.0 | 0.00 | 0.00 | 0.00 | 67 | 932.4 |
| 20260502065348 | 66 | 0 | 33.0 | 0.0 | 0.00 | 0.00 | 0.00 | 67 | 932.5 |
| 20260502065240 | 66 | 0 | 51.3 | 0.0 | 0.00 | 0.00 | 0.00 | 67 | 932.4 |
| 20260502065131 | 65 | 0 | 50.4 | 0.0 | 0.00 | 0.00 | 0.00 | 67 | 932.4 |
| 20260502065023 | 65 | 315 | 32.2 | 0.0 | 0.00 | 0.00 | 0.00 | 67 | 932.4 |
| 20260502064914 | 65 | 0 | 60.0 | 0.0 | 0.00 | 0.00 | 0.00 | 67 | 932.5 |
| 20260502064806 | 64 | 0 | 22.6 | 0.0 | 0.00 | 0.00 | 0.00 | 67 | 932.4 |
| 20260502064657 | 64 | 0 | 50.4 | 0.0 | 0.00 | 0.00 | 0.00 | 67 | 932.5 |
| 20260502064549 | 64 | 315 | 20.0 | 0.0 | 0.00 | 0.00 | 0.00 | 67 | 932.5 |
| 20260502064440 | 63 | 315 | 45.2 | 0.0 | 0.00 | 0.00 | 0.00 | 67 | 932.5 |
| 20260502064332 | 63 | 0 | 21.7 | 0.0 | 0.00 | 0.00 | 0.00 | 67 | 932.4 |
| 20260502064224 | 63 | 0 | 34.8 | 0.0 | 0.00 | 0.00 | 0.00 | 67 | 932.5 |
| 20260502064115 | 63 | 315 | 13.9 | 0.0 | 0.00 | 0.00 | 0.00 | 67 | 932.4 |
| 20260502064007 | 62 | 0 | 37.4 | 0.0 | 0.00 | 0.00 | 0.00 | 67 | 932.5 |
| 20260502063858 | 62 | 0 | 37.4 | 0.0 | 0.00 | 0.00 | 0.00 | 67 | 932.5 |
| 20260502063750 | 62 | 0 | 37.4 | 0.0 | 0.00 | 0.00 | 0.00 | 67 | 932.5 |
| 20260502063641 | 62 | 0 | 40.0 | 0.0 | 0.00 | 0.00 | 0.00 | 67 | 932.6 |
| 20260502063533 | 61 | 45 | 36.5 | 0.0 | 0.00 | 0.00 | 0.00 | 67 | 932.5 |
| 20260502063424 | 61 | 45 | 57.4 | 0.0 | 0.00 | 0.00 | 0.00 | 67 | 932.6 |
| 20260502063316 | 61 | 0 | 26.9 | 0.0 | 0.00 | 0.00 | 0.00 | 68 | 932.5 |
| 20260502063208 | 61 | 315 | 46.1 | 0.0 | 0.00 | 0.00 | 0.00 | 68 | 932.6 |
| 20260502063059 | 60 | 0 | 50.4 | 0.0 | 0.00 | 0.00 | 0.00 | 68 | 932.6 |
| 20260502062951 | 60 | 0 | 33.9 | 0.0 | 0.00 | 0.00 | 0.00 | 68 | 932.5 |
| 20260502062842 | 60 | 0 | 26.9 | 0.0 | 0.00 | 0.00 | 0.00 | 68 | 932.6 |
| 20260502062734 | 60 | 315 | 38.2 | 0.0 | 0.00 | 0.00 | 0.00 | 68 | 932.6 |
| 20260502062625 | 59 | 315 | 28.7 | 0.0 | 0.00 | 0.00 | 0.00 | 68 | 932.5 |
| 20260502062517 | 59 | 0 | 33.9 | 0.0 | 0.00 | 0.00 | 0.00 | 68 | 932.6 |
| 20260502062408 | 59 | 0 | 43.4 | 0.0 | 0.00 | 0.00 | 0.00 | 68 | 932.6 |
| 20260502062300 | 59 | 0 | 46.1 | 0.0 | 0.00 | 0.00 | 0.00 | 68 | 932.5 |
| 20260502062152 | 59 | 0 | 29.5 | 0.0 | 0.00 | 0.00 | 0.00 | 68 | 932.5 |
| 20260502062043 | 58 | 315 | 42.6 | 0.0 | 0.00 | 0.00 | 0.00 | 68 | 932.5 |
| 20260502061935 | 58 | 0 | 35.6 | 0.0 | 0.00 | 0.00 | 0.00 | 68 | 932.5 |
| 20260502061826 | 58 | 0 | 53.0 | 0.0 | 0.00 | 0.00 | 0.00 | 68 | 932.6 |
| 20260502061718 | 58 | 0 | 43.4 | 0.0 | 0.00 | 0.00 | 0.00 | 68 | 932.5 |
| 20260502061609 | 58 | 0 | 26.9 | 0.0 | 0.00 | 0.00 | 0.00 | 69 | 932.5 |
| 20260502061501 | 58 | 0 | 40.0 | 0.0 | 0.00 | 0.00 | 0.00 | 69 | 932.6 |
| 20260502061353 | 57 | 0 | 66.9 | 0.0 | 0.00 | 0.00 | 0.00 | 69 | 932.6 |
| 20260502061244 | 57 | 0 | 47.8 | 0.0 | 0.00 | 0.00 | 0.00 | 70 | 932.5 |
| 20260502061136 | 57 | 45 | 38.2 | 0.0 | 0.00 | 0.00 | 0.00 | 70 | 932.6 |
| 20260502061027 | 56 | 0 | 21.7 | 0.0 | 0.00 | 0.00 | 0.00 | 71 | 932.6 |
| 20260502060919 | 55 | 0 | 14.8 | 0.0 | 0.00 | 0.00 | 0.00 | 71 | 932.6 |
| 20260502060810 | 55 | 45 | 29.5 | 0.0 | 0.00 | 0.00 | 0.00 | 71 | 932.6 |
| 20260502060702 | 54 | 0 | 27.8 | 0.0 | 0.00 | 0.00 | 0.00 | 71 | 932.5 |
| 20260502060553 | 54 | 0 | 31.3 | 0.0 | 0.00 | 0.00 | 0.00 | 72 | 932.6 |
| 20260502060445 | 53 | 0 | 35.6 | 0.0 | 0.00 | 0.00 | 0.00 | 72 | 932.6 |
| 20260502060337 | 52 | 0 | 49.5 | 0.0 | 0.00 | 0.00 | 0.00 | 72 | 932.6 |
| 20260502060228 | 51 | 0 | 44.3 | 0.0 | 0.00 | 0.00 | 0.00 | 73 | 932.6 |
| 20260502060120 | 51 | 0 | 49.5 | 0.0 | 0.00 | 0.00 | 0.00 | 73 | 932.7 |
| 20260502060011 | 50 | 0 | 30.4 | 0.0 | 0.00 | 0.00 | 0.00 | 74 | 932.6 |
| 20260502055903 | 48 | 0 | 40.0 | 0.0 | 0.00 | 0.00 | 0.00 | 74 | 932.6 |
| 20260502055754 | 47 | 315 | 33.9 | 0.0 | 0.00 | 0.00 | 0.00 | 74 | 932.7 |
| 20260502055538 | 45 | 0 | 29.5 | 0.0 | 0.00 | 0.00 | 0.00 | 73 | 932.8 |
| 20260502055429 | 44 | 0 | 24.3 | 0.0 | 0.00 | 0.00 | 0.00 | 72 | 932.8 |
| 20260502055321 | 43 | 0 | 33.9 | 0.0 | 0.00 | 0.00 | 0.00 | 71 | 932.8 |
| 20260502055212 | 42 | 0 | 26.9 | 0.0 | 0.00 | 0.00 | 0.00 | 71 | 932.7 |
| 20260502055104 | 42 | 0 | 12.2 | 0.0 | 0.00 | 0.00 | 0.00 | 70 | 932.7 |
| 20260502054955 | 42 | 315 | 6.1 | 0.0 | 0.00 | 0.00 | 0.00 | 70 | 932.7 |
| 20260502054847 | 42 | 0 | 8.7 | 0.0 | 0.00 | 0.00 | 0.00 | 70 | 932.7 |
| 20260502054630 | 42 | 315 | 2.6 | 0.0 | 0.00 | 0.00 | 0.00 | 70 | 932.7 |
| 20260502054522 | 42 | 315 | 12.2 | 0.0 | 0.00 | 0.00 | 0.00 | 70 | 932.8 |
| 20260502054413 | 42 | 0 | 7.8 | 0.0 | 0.00 | 0.00 | 0.00 | 70 | 932.8 |
| 20260502054156 | 41 | 315 | 18.2 | 0.0 | 0.00 | 0.00 | 0.00 | 70 | 932.8 |
| 20260502054048 | 41 | 0 | 0.0 | 0.0 | 0.00 | 0.00 | 0.00 | 70 | 932.8 |
| 20260502053939 | 41 | 315 | 0.0 | 0.0 | 0.00 | 0.00 | 0.00 | 70 | 932.9 |
| 20260502053831 | 41 | 315 | 0.9 | 0.0 | 0.00 | 0.00 | 0.00 | 70 | 932.9 |
| 20260502053614 | 41 | 0 | 0.0 | 0.0 | 0.00 | 0.00 | 0.00 | 70 | 932.8 |
| 20260502053506 | 41 | 315 | 0.0 | 0.0 | 0.00 | 0.00 | 0.00 | 70 | 932.9 |
| 20260502053357 | 41 | 315 | 0.0 | 0.0 | 0.00 | 0.00 | 0.00 | 70 | 932.9 |
| 20260502053249 | 41 | 315 | 0.9 | 0.0 | 0.00 | 0.00 | 0.00 | 70 | 932.8 |
| 20260502053140 | 41 | 315 | 6.1 | 0.0 | 0.00 | 0.00 | 0.00 | 70 | 932.8 |
| 20260502053032 | 41 | 270 | 0.0 | 0.0 | 0.00 | 0.00 | 0.00 | 70 | 932.9 |
| 20260502052923 | 41 | 270 | 0.0 | 0.0 | 0.00 | 0.00 | 0.00 | 70 | 932.9 |
| 20260502052815 | 41 | 315 | 0.0 | 0.0 | 0.00 | 0.00 | 0.00 | 70 | 932.8 |
| 20260502052706 | 41 | 315 | 0.0 | 0.0 | 0.00 | 0.00 | 0.00 | 70 | 932.9 |
| 20260502052558 | 41 | 315 | 0.0 | 0.0 | 0.00 | 0.00 | 0.00 | 70 | 932.9 |
| 20260502052450 | 41 | 315 | 0.0 | 0.0 | 0.00 | 0.00 | 0.00 | 70 | 932.9 |
| 20260502052341 | 41 | 315 | 0.9 | 0.0 | 0.00 | 0.00 | 0.00 | 70 | 932.9 |
| 20260502052233 | 41 | 315 | 0.0 | 0.0 | 0.00 | 0.00 | 0.00 | 70 | 932.9 |
| 20260502052124 | 41 | 315 | 0.0 | 0.0 | 0.00 | 0.00 | 0.00 | 70 | 932.9 |
| 20260502052016 | 41 | 315 | 0.0 | 0.0 | 0.00 | 0.00 | 0.00 | 70 | 932.9 |
| 20260502051907 | 41 | 270 | 0.0 | 0.0 | 0.00 | 0.00 | 0.00 | 70 | 932.9 |
| 20260502051759 | 41 | 270 | 0.0 | 0.0 | 0.00 | 0.00 | 0.00 | 70 | 932.9 |
| 20260502051651 | 41 | 0 | 6.1 | 0.0 | 0.00 | 0.00 | 0.00 | 70 | 932.9 |
| 20260502051542 | 41 | 315 | 0.0 | 0.0 | 0.00 | 0.00 | 0.00 | 70 | 932.8 |
| 20260502051434 | 41 | 315 | 0.0 | 0.0 | 0.00 | 0.00 | 0.00 | 70 | 932.9 |
| 20260502051325 | 41 | 315 | 6.1 | 0.0 | 0.00 | 0.00 | 0.00 | 70 | 932.9 |
| 20260502051217 | 41 | 270 | 0.0 | 0.0 | 0.00 | 0.00 | 0.00 | 70 | 932.9 |
| 20260502051108 | 41 | 315 | 0.0 | 0.0 | 0.00 | 0.00 | 0.00 | 70 | 932.8 |
| 20260502050851 | 41 | 315 | 0.0 | 0.0 | 0.00 | 0.00 | 0.00 | 70 | 932.9 |
| 20260502050743 | 41 | 315 | 15.6 | 0.0 | 0.00 | 0.00 | 0.00 | 70 | 932.9 |
| 20260502050635 | 41 | 0 | 19.1 | 0.0 | 0.00 | 0.00 | 0.00 | 70 | 932.8 |
| 20260502050526 | 41 | 0 | 3.5 | 0.0 | 0.00 | 0.00 | 0.00 | 70 | 932.8 |
| 20260502050418 | 41 | 0 | 11.3 | 0.0 | 0.00 | 0.00 | 0.00 | 70 | 932.9 |
| 20260502050309 | 41 | 0 | 7.0 | 0.0 | 0.00 | 0.00 | 0.00 | 70 | 932.8 |
| 20260502050053 | 41 | 0 | 7.0 | 0.0 | 0.00 | 0.00 | 0.00 | 71 | 932.8 |
| 20260502045944 | 41 | 0 | 6.1 | 0.0 | 0.00 | 0.00 | 0.00 | 71 | 932.8 |
| 20260502045836 | 41 | 315 | 6.1 | 0.0 | 0.00 | 0.00 | 0.00 | 71 | 932.8 |
| 20260502045727 | 41 | 270 | 6.1 | 0.0 | 0.00 | 0.00 | 0.00 | 71 | 932.9 |
| 20260502045619 | 41 | 315 | 0.9 | 0.0 | 0.00 | 0.00 | 0.00 | 71 | 932.8 |
| 20260502045402 | 41 | 315 | 7.8 | 0.0 | 0.00 | 0.00 | 0.00 | 71 | 932.8 |
| 20260502045253 | 41 | 315 | 0.0 | 0.0 | 0.00 | 0.00 | 0.00 | 71 | 932.8 |
| 20260502045145 | 41 | 0 | 0.0 | 0.0 | 0.00 | 0.00 | 0.00 | 71 | 932.8 |
| 20260502045036 | 41 | 0 | 0.0 | 0.0 | 0.00 | 0.00 | 0.00 | 71 | 932.8 |
| 20260502044928 | 41 | 0 | 5.2 | 0.0 | 0.00 | 0.00 | 0.00 | 71 | 932.8 |
| 20260502044820 | 41 | 270 | 6.1 | 0.0 | 0.00 | 0.00 | 0.00 | 71 | 932.7 |
| 20260502044711 | 41 | 270 | 6.1 | 0.0 | 0.00 | 0.00 | 0.00 | 70 | 932.7 |
| 20260502044603 | 41 | 270 | 0.0 | 0.0 | 0.00 | 0.00 | 0.00 | 70 | 932.7 |
| 20260502044454 | 41 | 315 | 0.0 | 0.0 | 0.00 | 0.00 | 0.00 | 70 | 932.7 |
| 20260502044346 | 41 | 315 | 1.7 | 0.0 | 0.00 | 0.00 | 0.00 | 70 | 932.7 |
| 20260502044237 | 41 | 270 | 0.0 | 0.0 | 0.00 | 0.00 | 0.00 | 70 | 932.7 |
| 20260502044129 | 41 | 315 | 0.0 | 0.0 | 0.00 | 0.00 | 0.00 | 70 | 932.7 |
| 20260502044021 | 41 | 270 | 0.0 | 0.0 | 0.00 | 0.00 | 0.00 | 70 | 932.7 |
| 20260502043912 | 41 | 315 | 0.0 | 0.0 | 0.00 | 0.00 | 0.00 | 70 | 932.7 |
| 20260502043804 | 41 | 315 | 0.0 | 0.0 | 0.00 | 0.00 | 0.00 | 70 | 932.7 |
| 20260502043547 | 41 | 315 | 0.0 | 0.0 | 0.00 | 0.00 | 0.00 | 70 | 932.7 |
| 20260502043438 | 41 | 45 | 0.0 | 0.0 | 0.00 | 0.00 | 0.00 | 70 | 932.7 |
| 20260502043330 | 41 | 270 | 0.0 | 0.0 | 0.00 | 0.00 | 0.00 | 70 | 932.7 |
| 20260502043221 | 41 | 135 | 0.0 | 0.0 | 0.00 | 0.00 | 0.00 | 70 | 932.7 |
| 20260502043113 | 41 | 135 | 0.0 | 0.0 | 0.00 | 0.00 | 0.00 | 70 | 932.7 |
| 20260502043005 | 41 | 135 | 0.0 | 0.0 | 0.00 | 0.00 | 0.00 | 70 | 932.7 |
| 20260502042856 | 41 | 315 | 0.0 | 0.0 | 0.00 | 0.00 | 0.00 | 70 | 932.7 |
| 20260502042748 | 41 | 315 | 0.0 | 0.0 | 0.00 | 0.00 | 0.00 | 70 | 932.7 |
| 20260502042639 | 41 | 315 | 0.0 | 0.0 | 0.00 | 0.00 | 0.00 | 70 | 932.7 |
| 20260502042531 | 41 | 315 | 0.0 | 0.0 | 0.00 | 0.00 | 0.00 | 70 | 932.7 |
| 20260502042422 | 41 | 315 | 0.0 | 0.0 | 0.00 | 0.00 | 0.00 | 70 | 932.7 |
| 20260502042205 | 41 | 315 | 0.0 | 0.0 | 0.00 | 0.00 | 0.00 | 70 | 932.7 |
| 20260502042057 | 41 | 315 | 0.0 | 0.0 | 0.00 | 0.00 | 0.00 | 70 | 932.7 |
| 20260502041949 | 41 | 270 | 0.0 | 0.0 | 0.00 | 0.00 | 0.00 | 70 | 932.7 |
| 20260502041840 | 41 | 270 | 0.0 | 0.0 | 0.00 | 0.00 | 0.00 | 70 | 932.7 |
| 20260502041732 | 41 | 0 | 0.0 | 0.0 | 0.00 | 0.00 | 0.00 | 70 | 932.7 |
| 20260502041623 | 41 | 0 | 0.0 | 0.0 | 0.00 | 0.00 | 0.00 | 70 | 932.7 |
| 20260502041406 | 41 | 315 | 6.1 | 0.0 | 0.00 | 0.00 | 0.00 | 70 | 932.7 |
| 20260502041258 | 42 | 315 | 7.8 | 0.0 | 0.00 | 0.00 | 0.00 | 70 | 932.7 |
| 20260502041149 | 42 | 225 | 0.0 | 0.0 | 0.00 | 0.00 | 0.00 | 70 | 932.7 |
| 20260502041041 | 42 | 270 | 0.0 | 0.0 | 0.00 | 0.00 | 0.00 | 70 | 932.7 |
| 20260502040933 | 42 | 315 | 0.9 | 0.0 | 0.00 | 0.00 | 0.00 | 70 | 932.6 |
| 20260502040824 | 42 | 315 | 13.0 | 0.0 | 0.00 | 0.00 | 0.00 | 70 | 932.7 |
| 20260502040716 | 42 | 315 | 13.0 | 0.0 | 0.00 | 0.00 | 0.00 | 70 | 932.7 |
| 20260502040607 | 42 | 0 | 7.8 | 0.0 | 0.00 | 0.00 | 0.00 | 70 | 932.6 |
| 20260502040459 | 42 | 0 | 1.7 | 0.0 | 0.00 | 0.00 | 0.00 | 71 | 932.6 |
| 20260502040350 | 42 | 315 | 21.7 | 0.0 | 0.00 | 0.00 | 0.00 | 71 | 932.7 |
| 20260502040242 | 42 | 315 | 12.2 | 0.0 | 0.00 | 0.00 | 0.00 | 71 | 932.6 |
| 20260502040134 | 42 | 315 | 21.7 | 0.0 | 0.00 | 0.00 | 0.00 | 71 | 932.6 |
| 20260502040025 | 42 | 0 | 9.6 | 0.0 | 0.00 | 0.00 | 0.00 | 71 | 932.6 |
| 20260502035917 | 42 | 270 | 24.3 | 0.0 | 0.00 | 0.00 | 0.00 | 71 | 932.6 |
| 20260502035808 | 42 | 0 | 13.0 | 0.0 | 0.00 | 0.00 | 0.00 | 71 | 932.7 |
| 20260502035700 | 42 | 315 | 15.6 | 0.0 | 0.00 | 0.00 | 0.00 | 71 | 932.7 |
| 20260502035551 | 42 | 315 | 9.6 | 0.0 | 0.00 | 0.00 | 0.00 | 71 | 932.6 |
| 20260502035443 | 42 | 315 | 0.0 | 0.0 | 0.00 | 0.00 | 0.00 | 71 | 932.6 |
| 20260502035334 | 42 | 0 | 0.0 | 0.0 | 0.00 | 0.00 | 0.00 | 71 | 932.6 |
| 20260502035226 | 42 | 315 | 7.0 | 0.0 | 0.00 | 0.00 | 0.00 | 71 | 932.6 |
| 20260502035118 | 41 | 0 | 20.0 | 0.0 | 0.00 | 0.00 | 0.00 | 71 | 932.6 |
| 20260502035009 | 41 | 0 | 18.2 | 0.0 | 0.00 | 0.00 | 0.00 | 71 | 932.6 |
| 20260502034901 | 41 | 0 | 16.5 | 0.0 | 0.00 | 0.00 | 0.00 | 71 | 932.7 |
| 20260502034752 | 41 | 0 | 7.8 | 0.0 | 0.00 | 0.00 | 0.00 | 70 | 932.6 |
| 20260502034644 | 41 | 315 | 20.9 | 0.0 | 0.00 | 0.00 | 0.00 | 70 | 932.6 |
| 20260502034536 | 41 | 0 | 11.3 | 0.0 | 0.00 | 0.00 | 0.00 | 70 | 932.6 |
| 20260502034427 | 41 | 315 | 6.1 | 0.0 | 0.00 | 0.00 | 0.00 | 70 | 932.6 |
| 20260502034319 | 41 | 315 | 0.9 | 0.0 | 0.00 | 0.00 | 0.00 | 70 | 932.6 |
| 20260502034211 | 41 | 315 | 0.0 | 0.0 | 0.00 | 0.00 | 0.00 | 71 | 932.6 |
| 20260502034103 | 41 | 315 | 0.0 | 0.0 | 0.00 | 0.00 | 0.00 | 71 | 932.6 |
| 20260502033954 | 41 | 315 | 0.0 | 0.0 | 0.00 | 0.00 | 0.00 | 71 | 932.6 |
| 20260502033846 | 41 | 315 | 0.0 | 0.0 | 0.00 | 0.00 | 0.00 | 71 | 932.6 |
| 20260502033738 | 41 | 315 | 0.0 | 0.0 | 0.00 | 0.00 | 0.00 | 71 | 932.6 |
| 20260502033630 | 41 | 315 | 0.9 | 0.0 | 0.00 | 0.00 | 0.00 | 71 | 932.7 |
| 20260502033521 | 41 | 0 | 19.1 | 0.0 | 0.00 | 0.00 | 0.00 | 71 | 932.6 |
| 20260502033413 | 41 | 315 | 17.4 | 0.0 | 0.00 | 0.00 | 0.00 | 71 | 932.7 |
| 20260502033305 | 41 | 315 | 10.4 | 0.0 | 0.00 | 0.00 | 0.00 | 71 | 932.6 |
| 20260502033156 | 41 | 315 | 9.6 | 0.0 | 0.00 | 0.00 | 0.00 | 71 | 932.6 |
| 20260502033048 | 41 | 315 | 3.5 | 0.0 | 0.00 | 0.00 | 0.00 | 71 | 932.6 |
| 20260502032940 | 41 | 315 | 5.2 | 0.0 | 0.00 | 0.00 | 0.00 | 71 | 932.6 |
| 20260502032832 | 41 | 315 | 8.7 | 0.0 | 0.00 | 0.00 | 0.00 | 71 | 932.6 |
| 20260502032723 | 41 | 315 | 1.7 | 0.0 | 0.00 | 0.00 | 0.00 | 71 | 932.6 |
| 20260502032615 | 41 | 315 | 7.8 | 0.0 | 0.00 | 0.00 | 0.00 | 71 | 932.6 |
| 20260502032507 | 41 | 315 | 1.7 | 0.0 | 0.00 | 0.00 | 0.00 | 71 | 932.6 |
| 20260502032358 | 41 | 315 | 13.0 | 0.0 | 0.00 | 0.00 | 0.00 | 71 | 932.7 |
| 20260502032250 | 41 | 315 | 7.8 | 0.0 | 0.00 | 0.00 | 0.00 | 71 | 932.6 |
| 20260502032142 | 41 | 315 | 10.4 | 0.0 | 0.00 | 0.00 | 0.00 | 71 | 932.6 |
| 20260502032034 | 41 | 315 | 20.0 | 0.0 | 0.00 | 0.00 | 0.00 | 71 | 932.6 |
| 20260502031925 | 41 | 315 | 5.2 | 0.0 | 0.00 | 0.00 | 0.00 | 71 | 932.7 |
| 20260502031817 | 41 | 0 | 10.4 | 0.0 | 0.00 | 0.00 | 0.00 | 71 | 932.7 |
| 20260502031709 | 41 | 315 | 7.8 | 0.0 | 0.00 | 0.00 | 0.00 | 71 | 932.6 |
| 20260502031601 | 41 | 315 | 3.5 | 0.0 | 0.00 | 0.00 | 0.00 | 71 | 932.6 |
| 20260502031452 | 41 | 315 | 8.7 | 0.0 | 0.00 | 0.00 | 0.00 | 71 | 932.7 |
| 20260502031344 | 40 | 315 | 7.8 | 0.0 | 0.00 | 0.00 | 0.00 | 71 | 932.7 |
| 20260502031236 | 41 | 315 | 7.8 | 0.0 | 0.00 | 0.00 | 0.00 | 70 | 932.7 |
| 20260502031127 | 41 | 315 | 3.5 | 0.0 | 0.00 | 0.00 | 0.00 | 70 | 932.7 |
| 20260502031019 | 41 | 315 | 11.3 | 0.0 | 0.00 | 0.00 | 0.00 | 71 | 932.7 |
| 20260502030911 | 41 | 315 | 13.9 | 0.0 | 0.00 | 0.00 | 0.00 | 71 | 932.7 |
| 20260502030803 | 41 | 315 | 3.5 | 0.0 | 0.00 | 0.00 | 0.00 | 71 | 932.7 |
| 20260502030654 | 41 | 315 | 2.6 | 0.0 | 0.00 | 0.00 | 0.00 | 71 | 932.7 |
| 20260502030546 | 41 | 315 | 1.7 | 0.0 | 0.00 | 0.00 | 0.00 | 71 | 932.7 |
| 20260502030438 | 41 | 315 | 6.1 | 0.0 | 0.00 | 0.00 | 0.00 | 71 | 932.7 |
| 20260502030329 | 41 | 315 | 8.7 | 0.0 | 0.00 | 0.00 | 0.00 | 70 | 932.7 |
| 20260502030221 | 41 | 315 | 0.9 | 0.0 | 0.00 | 0.00 | 0.00 | 70 | 932.8 |
| 20260502030113 | 41 | 315 | 0.0 | 0.0 | 0.00 | 0.00 | 0.00 | 70 | 932.8 |
| 20260502025856 | 41 | 315 | 1.7 | 0.0 | 0.00 | 0.00 | 0.00 | 70 | 932.8 |
| 20260502025748 | 41 | 315 | 7.0 | 0.0 | 0.00 | 0.00 | 0.00 | 70 | 932.8 |
| 20260502025640 | 41 | 315 | 0.9 | 0.0 | 0.00 | 0.00 | 0.00 | 70 | 932.8 |
| 20260502025423 | 41 | 315 | 1.7 | 0.0 | 0.00 | 0.00 | 0.00 | 70 | 932.8 |
| 20260502025315 | 41 | 315 | 7.0 | 0.0 | 0.00 | 0.00 | 0.00 | 70 | 932.9 |
| 20260502025207 | 41 | 315 | 0.0 | 0.0 | 0.00 | 0.00 | 0.00 | 70 | 932.9 |
| 20260502025058 | 41 | 315 | 0.0 | 0.0 | 0.00 | 0.00 | 0.00 | 70 | 932.9 |
| 20260502024950 | 41 | 315 | 0.0 | 0.0 | 0.00 | 0.00 | 0.00 | 70 | 932.9 |
| 20260502024734 | 41 | 0 | 0.0 | 0.0 | 0.00 | 0.00 | 0.00 | 70 | 932.9 |
| 20260502024517 | 41 | 315 | 1.7 | 0.0 | 0.00 | 0.00 | 0.00 | 71 | 932.8 |
| 20260502024409 | 41 | 315 | 13.9 | 0.0 | 0.00 | 0.00 | 0.00 | 71 | 932.8 |
| 20260502024300 | 41 | 315 | 13.9 | 0.0 | 0.00 | 0.00 | 0.00 | 71 | 932.8 |
| 20260502024152 | 41 | 315 | 10.4 | 0.0 | 0.00 | 0.00 | 0.00 | 71 | 932.8 |
| 20260502024044 | 41 | 315 | 7.8 | 0.0 | 0.00 | 0.00 | 0.00 | 71 | 932.8 |
| 20260502023936 | 41 | 315 | 1.7 | 0.0 | 0.00 | 0.00 | 0.00 | 71 | 932.8 |
| 20260502023827 | 41 | 315 | 14.8 | 0.0 | 0.00 | 0.00 | 0.00 | 71 | 932.8 |
| 20260502023719 | 41 | 315 | 13.9 | 0.0 | 0.00 | 0.00 | 0.00 | 70 | 932.8 |
| 20260502023611 | 41 | 315 | 16.5 | 0.0 | 0.00 | 0.00 | 0.00 | 70 | 932.8 |
| 20260502023503 | 41 | 0 | 14.8 | 0.0 | 0.00 | 0.00 | 0.00 | 70 | 932.8 |
| 20260502023354 | 41 | 315 | 7.0 | 0.0 | 0.00 | 0.00 | 0.00 | 70 | 932.9 |
| 20260502023246 | 41 | 315 | 4.3 | 0.0 | 0.00 | 0.00 | 0.00 | 70 | 932.9 |
| 20260502023138 | 41 | 315 | 0.9 | 0.0 | 0.00 | 0.00 | 0.00 | 70 | 933.0 |
| 20260502023029 | 41 | 315 | 3.5 | 0.0 | 0.00 | 0.00 | 0.00 | 70 | 932.9 |
| 20260502022813 | 41 | 270 | 0.0 | 0.0 | 0.00 | 0.00 | 0.00 | 70 | 933.0 |
| 20260502022705 | 41 | 315 | 0.0 | 0.0 | 0.00 | 0.00 | 0.00 | 70 | 932.9 |
| 20260502022556 | 41 | 315 | 0.0 | 0.0 | 0.00 | 0.00 | 0.00 | 70 | 932.9 |
| 20260502022448 | 41 | 315 | 6.1 | 0.0 | 0.00 | 0.00 | 0.00 | 70 | 932.9 |
| 20260502022340 | 41 | 315 | 0.9 | 0.0 | 0.00 | 0.00 | 0.00 | 70 | 932.9 |
| 20260502022232 | 41 | 315 | 3.5 | 0.0 | 0.00 | 0.00 | 0.00 | 70 | 932.9 |
| 20260502022123 | 42 | 315 | 7.0 | 0.0 | 0.00 | 0.00 | 0.00 | 70 | 932.9 |
| 20260502022015 | 42 | 315 | 10.4 | 0.0 | 0.00 | 0.00 | 0.00 | 70 | 932.9 |
| 20260502021907 | 42 | 315 | 1.7 | 0.0 | 0.00 | 0.00 | 0.00 | 70 | 932.9 |
| 20260502021758 | 42 | 315 | 8.7 | 0.0 | 0.00 | 0.00 | 0.00 | 70 | 932.9 |
| 20260502021650 | 42 | 315 | 4.3 | 0.0 | 0.00 | 0.00 | 0.00 | 70 | 932.9 |
| 20260502021542 | 42 | 315 | 7.0 | 0.0 | 0.00 | 0.00 | 0.00 | 70 | 932.9 |
| 20260502021434 | 42 | 315 | 12.2 | 0.0 | 0.00 | 0.00 | 0.00 | 70 | 932.9 |
| 20260502021325 | 42 | 0 | 1.7 | 0.0 | 0.00 | 0.00 | 0.00 | 70 | 932.9 |
| 20260502021217 | 42 | 270 | 10.4 | 0.0 | 0.00 | 0.00 | 0.00 | 70 | 932.9 |
| 20260502021109 | 42 | 315 | 11.3 | 0.0 | 0.00 | 0.00 | 0.00 | 70 | 932.9 |
| 20260502021001 | 42 | 315 | 9.6 | 0.0 | 0.00 | 0.00 | 0.00 | 70 | 932.9 |
| 20260502020852 | 42 | 315 | 1.7 | 0.0 | 0.00 | 0.00 | 0.00 | 70 | 932.9 |
| 20260502020744 | 42 | 315 | 1.7 | 0.0 | 0.00 | 0.00 | 0.00 | 70 | 932.9 |
| 20260502020636 | 42 | 315 | 1.7 | 0.0 | 0.00 | 0.00 | 0.00 | 70 | 932.9 |
| 20260502020527 | 42 | 315 | 7.0 | 0.0 | 0.00 | 0.00 | 0.00 | 70 | 932.9 |
| 20260502020419 | 42 | 315 | 0.0 | 0.0 | 0.00 | 0.00 | 0.00 | 70 | 933.0 |
| 20260502020311 | 42 | 315 | 0.0 | 0.0 | 0.00 | 0.00 | 0.00 | 70 | 933.0 |
| 20260502020203 | 42 | 315 | 6.1 | 0.0 | 0.00 | 0.00 | 0.00 | 70 | 932.9 |
| 20260502020054 | 42 | 315 | 7.8 | 0.0 | 0.00 | 0.00 | 0.00 | 70 | 933.0 |
| 20260502015946 | 42 | 315 | 9.6 | 0.0 | 0.00 | 0.00 | 0.00 | 70 | 932.9 |
| 20260502015838 | 42 | 315 | 2.6 | 0.0 | 0.00 | 0.00 | 0.00 | 70 | 933.0 |
| 20260502015729 | 42 | 315 | 8.7 | 0.0 | 0.00 | 0.00 | 0.00 | 70 | 933.0 |
| 20260502015621 | 42 | 315 | 14.8 | 0.0 | 0.00 | 0.00 | 0.00 | 70 | 933.0 |
| 20260502015513 | 42 | 0 | 7.0 | 0.0 | 0.00 | 0.00 | 0.00 | 70 | 933.0 |
| 20260502015405 | 42 | 315 | 7.8 | 0.0 | 0.00 | 0.00 | 0.00 | 70 | 933.0 |
| 20260502015256 | 42 | 315 | 7.0 | 0.0 | 0.00 | 0.00 | 0.00 | 70 | 933.0 |
| 20260502015148 | 43 | 0 | 19.1 | 0.0 | 0.00 | 0.00 | 0.00 | 70 | 932.9 |
| 20260502015040 | 43 | 315 | 1.7 | 0.0 | 0.00 | 0.00 | 0.00 | 70 | 932.9 |
| 20260502014932 | 43 | 315 | 11.3 | 0.0 | 0.00 | 0.00 | 0.00 | 71 | 933.0 |
| 20260502014823 | 43 | 315 | 1.7 | 0.0 | 0.00 | 0.00 | 0.00 | 71 | 933.0 |
| 20260502014715 | 43 | 315 | 18.2 | 0.0 | 0.00 | 0.00 | 0.00 | 71 | 933.0 |
| 20260502014607 | 43 | 315 | 0.9 | 0.0 | 0.00 | 0.00 | 0.00 | 71 | 933.0 |
| 20260502014458 | 43 | 315 | 3.5 | 0.0 | 0.00 | 0.00 | 0.00 | 71 | 933.0 |
| 20260502014350 | 43 | 315 | 7.8 | 0.0 | 0.00 | 0.00 | 0.00 | 71 | 933.0 |
| 20260502014242 | 43 | 0 | 18.2 | 0.0 | 0.00 | 0.00 | 0.00 | 71 | 933.0 |
| 20260502014134 | 43 | 0 | 15.6 | 0.0 | 0.00 | 0.00 | 0.00 | 71 | 933.0 |
| 20260502014025 | 43 | 0 | 4.3 | 0.0 | 0.00 | 0.00 | 0.00 | 71 | 933.0 |
| 20260502013917 | 43 | 315 | 4.3 | 0.0 | 0.00 | 0.00 | 0.00 | 71 | 933.0 |
| 20260502013809 | 43 | 315 | 20.9 | 0.0 | 0.00 | 0.00 | 0.00 | 71 | 932.9 |
| 20260502013700 | 43 | 315 | 13.0 | 0.0 | 0.00 | 0.00 | 0.00 | 71 | 933.0 |
| 20260502013552 | 43 | 0 | 0.0 | 0.0 | 0.00 | 0.00 | 0.00 | 71 | 933.0 |
| 20260502013444 | 43 | 315 | 6.1 | 0.0 | 0.00 | 0.00 | 0.00 | 71 | 933.0 |
| 20260502013336 | 43 | 315 | 5.2 | 0.0 | 0.00 | 0.00 | 0.00 | 71 | 933.0 |
| 20260502013227 | 43 | 0 | 13.0 | 0.0 | 0.00 | 0.00 | 0.00 | 71 | 933.0 |
| 20260502013119 | 43 | 0 | 8.7 | 0.0 | 0.00 | 0.00 | 0.00 | 71 | 932.9 |
| 20260502013011 | 43 | 315 | 24.3 | 0.0 | 0.00 | 0.00 | 0.00 | 71 | 933.0 |
| 20260502012902 | 43 | 315 | 2.6 | 0.0 | 0.00 | 0.00 | 0.00 | 71 | 933.0 |
| 20260502012754 | 43 | 315 | 9.6 | 0.0 | 0.00 | 0.00 | 0.00 | 71 | 933.0 |
| 20260502012646 | 43 | 315 | 3.5 | 0.0 | 0.00 | 0.00 | 0.00 | 71 | 933.0 |
| 20260502012538 | 43 | 315 | 11.3 | 0.0 | 0.00 | 0.00 | 0.00 | 71 | 933.0 |
| 20260502012429 | 43 | 0 | 0.9 | 0.0 | 0.00 | 0.00 | 0.00 | 71 | 933.0 |
| 20260502012321 | 43 | 315 | 2.6 | 0.0 | 0.00 | 0.00 | 0.00 | 71 | 933.0 |
| 20260502012213 | 42 | 0 | 6.1 | 0.0 | 0.00 | 0.00 | 0.00 | 71 | 933.0 |
| 20260502012105 | 42 | 315 | 9.6 | 0.0 | 0.00 | 0.00 | 0.00 | 71 | 933.0 |
| 20260502011956 | 42 | 315 | 5.2 | 0.0 | 0.00 | 0.00 | 0.00 | 71 | 933.1 |
| 20260502011848 | 42 | 0 | 14.8 | 0.0 | 0.00 | 0.00 | 0.00 | 71 | 933.1 |
| 20260502011740 | 42 | 315 | 2.6 | 0.0 | 0.00 | 0.00 | 0.00 | 71 | 933.0 |
| 20260502011632 | 42 | 315 | 11.3 | 0.0 | 0.00 | 0.00 | 0.00 | 71 | 933.0 |
| 20260502011523 | 42 | 0 | 8.7 | 0.0 | 0.00 | 0.00 | 0.00 | 71 | 933.1 |
| 20260502011415 | 42 | 0 | 11.3 | 0.0 | 0.00 | 0.00 | 0.00 | 71 | 933.1 |
| 20260502011307 | 42 | 315 | 10.4 | 0.0 | 0.00 | 0.00 | 0.00 | 71 | 933.1 |
| 20260502011158 | 42 | 315 | 7.8 | 0.0 | 0.00 | 0.00 | 0.00 | 71 | 933.1 |
| 20260502011050 | 42 | 315 | 1.7 | 0.0 | 0.00 | 0.00 | 0.00 | 71 | 933.1 |
| 20260502010942 | 42 | 315 | 8.7 | 0.0 | 0.00 | 0.00 | 0.00 | 71 | 933.1 |
| 20260502010834 | 42 | 315 | 7.8 | 0.0 | 0.00 | 0.00 | 0.00 | 71 | 933.2 |
| 20260502010725 | 42 | 315 | 7.0 | 0.0 | 0.00 | 0.00 | 0.00 | 71 | 933.1 |
| 20260502010618 | 42 | 0 | 6.1 | 0.0 | 0.00 | 0.00 | 0.00 | 71 | 933.2 |
| 20260502010509 | 42 | 315 | 5.2 | 0.0 | 0.00 | 0.00 | 0.00 | 71 | 933.2 |
| 20260502010400 | 42 | 315 | 1.7 | 0.0 | 0.00 | 0.00 | 0.00 | 71 | 933.2 |
| 20260502010252 | 42 | 315 | 4.3 | 0.0 | 0.00 | 0.00 | 0.00 | 71 | 933.2 |
| 20260502010144 | 42 | 315 | 15.6 | 0.0 | 0.00 | 0.00 | 0.00 | 71 | 933.2 |
| 20260502010036 | 42 | 315 | 13.9 | 0.0 | 0.00 | 0.00 | 0.00 | 71 | 933.2 |
| 20260502005927 | 42 | 315 | 15.6 | 0.0 | 0.00 | 0.00 | 0.00 | 71 | 933.2 |
| 20260502005819 | 42 | 0 | 0.9 | 0.0 | 0.00 | 0.00 | 0.00 | 71 | 933.2 |
| 20260502005711 | 42 | 315 | 14.8 | 0.0 | 0.00 | 0.00 | 0.00 | 71 | 933.2 |
| 20260502005603 | 42 | 0 | 7.8 | 0.0 | 0.00 | 0.00 | 0.00 | 71 | 933.2 |
| 20260502005454 | 42 | 0 | 7.8 | 0.0 | 0.00 | 0.00 | 0.00 | 71 | 933.2 |
| 20260502005346 | 42 | 315 | 4.3 | 0.0 | 0.00 | 0.00 | 0.00 | 71 | 933.2 |
| 20260502005238 | 42 | 0 | 7.8 | 0.0 | 0.00 | 0.00 | 0.00 | 71 | 933.2 |
| 20260502005129 | 42 | 315 | 7.8 | 0.0 | 0.00 | 0.00 | 0.00 | 71 | 933.2 |
| 20260502005021 | 42 | 315 | 6.1 | 0.0 | 0.00 | 0.00 | 0.00 | 71 | 933.2 |
| 20260502004913 | 42 | 315 | 3.5 | 0.0 | 0.00 | 0.00 | 0.00 | 71 | 933.2 |
| 20260502004805 | 42 | 315 | 15.6 | 0.0 | 0.00 | 0.00 | 0.00 | 71 | 933.2 |
| 20260502004656 | 42 | 315 | 40.0 | 0.0 | 0.00 | 0.00 | 0.00 | 71 | 933.2 |
| 20260502004548 | 42 | 0 | 1.7 | 0.0 | 0.00 | 0.00 | 0.00 | 71 | 933.2 |
| 20260502004440 | 42 | 315 | 10.4 | 0.0 | 0.00 | 0.00 | 0.00 | 71 | 933.2 |
| 20260502004331 | 42 | 0 | 7.8 | 0.0 | 0.00 | 0.00 | 0.00 | 71 | 933.2 |
| 20260502004223 | 42 | 315 | 6.1 | 0.0 | 0.00 | 0.00 | 0.00 | 71 | 933.2 |
| 20260502004115 | 42 | 315 | 7.8 | 0.0 | 0.00 | 0.00 | 0.00 | 71 | 933.2 |
| 20260502004007 | 42 | 0 | 3.5 | 0.0 | 0.00 | 0.00 | 0.00 | 71 | 933.2 |
| 20260502003858 | 42 | 315 | 8.7 | 0.0 | 0.00 | 0.00 | 0.00 | 71 | 933.2 |
| 20260502003750 | 42 | 315 | 0.9 | 0.0 | 0.00 | 0.00 | 0.00 | 71 | 933.2 |
| 20260502003642 | 42 | 315 | 7.8 | 0.0 | 0.00 | 0.00 | 0.00 | 71 | 933.2 |
| 20260502003534 | 42 | 315 | 1.7 | 0.0 | 0.00 | 0.00 | 0.00 | 71 | 933.3 |
| 20260502003425 | 42 | 315 | 1.7 | 0.0 | 0.00 | 0.00 | 0.00 | 71 | 933.2 |
| 20260502003317 | 42 | 315 | 0.9 | 0.0 | 0.00 | 0.00 | 0.00 | 71 | 933.2 |
| 20260502003209 | 42 | 315 | 0.0 | 0.0 | 0.00 | 0.00 | 0.00 | 71 | 933.2 |
| 20260502003100 | 42 | 315 | 0.0 | 0.0 | 0.00 | 0.00 | 0.00 | 71 | 933.3 |
| 20260502002952 | 42 | 270 | 5.2 | 0.0 | 0.00 | 0.00 | 0.00 | 71 | 933.3 |
| 20260502002844 | 42 | 0 | 12.2 | 0.0 | 0.00 | 0.00 | 0.00 | 71 | 933.3 |
| 20260502002736 | 42 | 0 | 1.7 | 0.0 | 0.00 | 0.00 | 0.00 | 71 | 933.3 |
| 20260502002627 | 42 | 315 | 8.7 | 0.0 | 0.00 | 0.00 | 0.00 | 71 | 933.3 |
| 20260502002519 | 42 | 315 | 8.7 | 0.0 | 0.00 | 0.00 | 0.00 | 71 | 933.3 |
| 20260502002411 | 41 | 315 | 11.3 | 0.0 | 0.00 | 0.00 | 0.00 | 71 | 933.4 |
| 20260502002305 | 41 | 315 | 8.7 | 0.0 | 0.00 | 0.00 | 0.00 | 71 | 933.3 |
| 20260502002154 | 41 | 315 | 7.0 | 0.0 | 0.00 | 0.00 | 0.00 | 71 | 933.4 |
| 20260502002046 | 41 | 315 | 13.0 | 0.0 | 0.00 | 0.00 | 0.00 | 70 | 933.3 |
| 20260502001938 | 41 | 315 | 0.0 | 0.0 | 0.00 | 0.00 | 0.00 | 70 | 933.3 |
| 20260502001829 | 41 | 315 | 0.0 | 0.0 | 0.00 | 0.00 | 0.00 | 71 | 933.4 |
| 20260502001721 | 42 | 315 | 0.0 | 0.0 | 0.00 | 0.00 | 0.00 | 71 | 933.4 |
| 20260502001613 | 42 | 180 | 0.0 | 0.0 | 0.00 | 0.00 | 0.00 | 71 | 933.4 |
| 20260502001505 | 42 | 180 | 0.0 | 0.0 | 0.00 | 0.00 | 0.00 | 71 | 933.4 |
| 20260502001356 | 42 | 0 | 0.0 | 0.0 | 0.00 | 0.00 | 0.00 | 71 | 933.3 |
| 20260502001248 | 42 | 0 | 0.0 | 0.0 | 0.00 | 0.00 | 0.00 | 71 | 933.3 |
| 20260502001140 | 42 | 315 | 1.7 | 0.0 | 0.00 | 0.00 | 0.00 | 71 | 933.3 |
| 20260502001031 | 42 | 315 | 2.6 | 0.0 | 0.00 | 0.00 | 0.00 | 71 | 933.3 |
| 20260502000923 | 42 | 315 | 20.0 | 0.0 | 0.00 | 0.00 | 0.00 | 71 | 933.3 |
| 20260502000815 | 42 | 315 | 20.9 | 0.0 | 0.00 | 0.00 | 0.00 | 71 | 933.3 |
| 20260502000707 | 42 | 315 | 3.5 | 0.0 | 0.00 | 0.00 | 0.00 | 71 | 933.3 |
| 20260502000558 | 42 | 315 | 13.9 | 0.0 | 0.00 | 0.00 | 0.00 | 71 | 933.4 |
| 20260502000450 | 41 | 315 | 1.7 | 0.0 | 0.00 | 0.00 | 0.00 | 71 | 933.4 |
| 20260502000342 | 41 | 315 | 7.0 | 0.0 | 0.00 | 0.00 | 0.00 | 71 | 933.4 |
| 20260502000234 | 41 | 315 | 11.3 | 0.0 | 0.00 | 0.00 | 0.00 | 71 | 933.4 |
| 20260502000125 | 41 | 315 | 7.0 | 0.0 | 0.00 | 0.00 | 0.00 | 71 | 933.4 |
| 20260502000017 | 41 | 315 | 8.7 | 0.0 | 0.00 | 0.00 | 0.00 | 70 | 933.4 |
| 20260501235909 | 41 | 315 | 1.7 | 0.0 | 0.00 | 0.00 | 0.00 | 70 | 933.4 |
| 20260501235800 | 41 | 315 | 0.0 | 0.0 | 0.00 | 0.00 | 0.00 | 70 | 933.4 |
| 20260501235652 | 41 | 315 | 0.0 | 0.0 | 0.00 | 0.00 | 0.00 | 70 | 933.4 |
| 20260501235544 | 41 | 315 | 0.0 | 0.0 | 0.00 | 0.00 | 0.00 | 70 | 933.4 |
| 20260501235436 | 41 | 315 | 0.0 | 0.0 | 0.00 | 0.00 | 0.00 | 70 | 933.5 |
| 20260501235327 | 41 | 315 | 0.0 | 0.0 | 0.00 | 0.00 | 0.00 | 70 | 933.4 |
| 20260501235219 | 41 | 0 | 0.0 | 0.0 | 0.00 | 0.00 | 0.00 | 70 | 933.4 |
| 20260501235111 | 41 | 0 | 0.0 | 0.0 | 0.00 | 0.00 | 0.00 | 70 | 933.5 |
| 20260501235002 | 41 | 0 | 0.0 | 0.0 | 0.00 | 0.00 | 0.00 | 70 | 933.5 |
| 20260501234854 | 41 | 0 | 0.0 | 0.0 | 0.00 | 0.00 | 0.00 | 70 | 933.5 |
| 20260501234746 | 41 | 180 | 0.9 | 0.0 | 0.00 | 0.00 | 0.00 | 70 | 933.5 |
| 20260501234638 | 41 | 180 | 0.0 | 0.0 | 0.00 | 0.00 | 0.00 | 70 | 933.5 |
| 20260501234529 | 41 | 315 | 0.0 | 0.0 | 0.00 | 0.00 | 0.00 | 70 | 933.4 |
| 20260501234421 | 41 | 315 | 0.0 | 0.0 | 0.00 | 0.00 | 0.00 | 70 | 933.5 |
| 20260501234313 | 41 | 315 | 0.0 | 0.0 | 0.00 | 0.00 | 0.00 | 70 | 933.5 |
| 20260501234205 | 41 | 0 | 0.0 | 0.0 | 0.00 | 0.00 | 0.00 | 70 | 933.5 |
| 20260501234056 | 41 | 0 | 2.6 | 0.0 | 0.00 | 0.00 | 0.00 | 70 | 933.5 |
| 20260501233948 | 41 | 0 | 0.0 | 0.0 | 0.00 | 0.00 | 0.00 | 70 | 933.5 |
| 20260501233840 | 41 | 315 | 0.0 | 0.0 | 0.00 | 0.00 | 0.00 | 70 | 933.5 |
| 20260501233731 | 42 | 315 | 0.0 | 0.0 | 0.00 | 0.00 | 0.00 | 70 | 933.5 |
| 20260501233623 | 42 | 225 | 6.1 | 0.0 | 0.00 | 0.00 | 0.00 | 70 | 933.5 |
| 20260501233515 | 42 | 180 | 0.9 | 0.0 | 0.00 | 0.00 | 0.00 | 70 | 933.5 |
| 20260501233407 | 42 | 0 | 0.0 | 0.0 | 0.00 | 0.00 | 0.00 | 70 | 933.5 |
| 20260501233258 | 42 | 315 | 0.0 | 0.0 | 0.00 | 0.00 | 0.00 | 70 | 933.4 |
| 20260501233150 | 42 | 315 | 0.0 | 0.0 | 0.00 | 0.00 | 0.00 | 70 | 933.5 |
| 20260501233042 | 42 | 270 | 0.0 | 0.0 | 0.00 | 0.00 | 0.00 | 70 | 933.4 |
| 20260501232933 | 42 | 180 | 0.0 | 0.0 | 0.00 | 0.00 | 0.00 | 70 | 933.4 |
| 20260501232825 | 42 | 180 | 0.0 | 0.0 | 0.00 | 0.00 | 0.00 | 70 | 933.5 |
| 20260501232717 | 42 | 315 | 0.0 | 0.0 | 0.00 | 0.00 | 0.00 | 70 | 933.4 |
| 20260501232609 | 42 | 315 | 0.9 | 0.0 | 0.00 | 0.00 | 0.00 | 70 | 933.4 |
| 20260501232500 | 42 | 270 | 6.1 | 0.0 | 0.00 | 0.00 | 0.00 | 70 | 933.5 |
| 20260501232352 | 42 | 315 | 0.9 | 0.0 | 0.00 | 0.00 | 0.00 | 70 | 933.4 |
| 20260501232136 | 42 | 315 | 0.9 | 0.0 | 0.00 | 0.00 | 0.00 | 70 | 933.5 |
| 20260501231919 | 42 | 270 | 6.1 | 0.0 | 0.00 | 0.00 | 0.00 | 70 | 933.5 |
| 20260501231811 | 42 | 270 | 0.0 | 0.0 | 0.00 | 0.00 | 0.00 | 70 | 933.5 |
| 20260501231702 | 42 | 270 | 0.0 | 0.0 | 0.00 | 0.00 | 0.00 | 70 | 933.5 |
| 20260501231554 | 42 | 0 | 0.0 | 0.0 | 0.00 | 0.00 | 0.00 | 70 | 933.4 |
| 20260501231446 | 42 | 0 | 0.0 | 0.0 | 0.00 | 0.00 | 0.00 | 70 | 933.5 |
| 20260501231338 | 42 | 0 | 0.0 | 0.0 | 0.00 | 0.00 | 0.00 | 70 | 933.5 |
| 20260501231229 | 42 | 0 | 0.0 | 0.0 | 0.00 | 0.00 | 0.00 | 70 | 933.4 |
| 20260501231121 | 42 | 315 | 0.0 | 0.0 | 0.00 | 0.00 | 0.00 | 70 | 933.5 |
| 20260501231013 | 42 | 315 | 0.0 | 0.0 | 0.00 | 0.00 | 0.00 | 70 | 933.5 |
| 20260501230904 | 43 | 315 | 0.0 | 0.0 | 0.00 | 0.00 | 0.00 | 70 | 933.5 |
| 20260501230756 | 43 | 315 | 0.0 | 0.0 | 0.00 | 0.00 | 0.00 | 70 | 933.5 |
| 20260501230648 | 43 | 315 | 0.0 | 0.0 | 0.00 | 0.00 | 0.00 | 70 | 933.5 |
| 20260501230540 | 43 | 180 | 0.0 | 0.0 | 0.00 | 0.00 | 0.00 | 70 | 933.5 |
| 20260501230431 | 43 | 135 | 0.0 | 0.0 | 0.00 | 0.00 | 0.00 | 70 | 933.4 |
| 20260501230323 | 43 | 135 | 0.0 | 0.0 | 0.00 | 0.00 | 0.00 | 70 | 933.4 |
| 20260501230215 | 43 | 315 | 0.9 | 0.0 | 0.00 | 0.00 | 0.00 | 70 | 933.5 |
| 20260501225958 | 43 | 270 | 0.9 | 0.0 | 0.00 | 0.00 | 0.00 | 70 | 933.5 |
| 20260501225850 | 43 | 315 | 1.7 | 0.0 | 0.00 | 0.00 | 0.00 | 70 | 933.5 |
| 20260501225742 | 43 | 315 | 3.5 | 0.0 | 0.00 | 0.00 | 0.00 | 70 | 933.6 |
| 20260501225633 | 43 | 315 | 2.6 | 0.0 | 0.00 | 0.00 | 0.00 | 70 | 933.6 |
| 20260501225525 | 43 | 315 | 3.5 | 0.0 | 0.00 | 0.00 | 0.00 | 70 | 933.6 |
| 20260501225417 | 43 | 315 | 4.3 | 0.0 | 0.00 | 0.00 | 0.00 | 70 | 933.6 |
| 20260501225309 | 43 | 315 | 10.4 | 0.0 | 0.00 | 0.00 | 0.00 | 70 | 933.6 |
| 20260501225200 | 43 | 0 | 7.0 | 0.0 | 0.00 | 0.00 | 0.00 | 70 | 933.6 |
| 20260501225052 | 43 | 315 | 6.1 | 0.0 | 0.00 | 0.00 | 0.00 | 70 | 933.6 |
| 20260501224944 | 44 | 315 | 13.9 | 0.0 | 0.00 | 0.00 | 0.00 | 70 | 933.6 |
| 20260501224836 | 44 | 0 | 12.2 | 0.0 | 0.00 | 0.00 | 0.00 | 71 | 933.6 |
| 20260501224727 | 44 | 315 | 20.0 | 0.0 | 0.00 | 0.00 | 0.00 | 71 | 933.6 |
| 20260501224619 | 44 | 0 | 7.0 | 0.0 | 0.00 | 0.00 | 0.00 | 71 | 933.6 |
| 20260501224511 | 44 | 0 | 3.5 | 0.0 | 0.00 | 0.00 | 0.00 | 71 | 933.5 |
| 20260501224402 | 44 | 315 | 2.6 | 0.0 | 0.00 | 0.00 | 0.00 | 71 | 933.6 |
| 20260501224254 | 44 | 315 | 15.6 | 0.0 | 0.00 | 0.00 | 0.00 | 71 | 933.5 |
| 20260501224146 | 44 | 315 | 13.9 | 0.0 | 0.00 | 0.00 | 0.00 | 71 | 933.6 |
| 20260501224038 | 44 | 315 | 9.6 | 0.0 | 0.00 | 0.00 | 0.00 | 71 | 933.6 |
| 20260501223929 | 44 | 315 | 8.7 | 0.0 | 0.00 | 0.00 | 0.00 | 71 | 933.6 |
| 20260501223821 | 44 | 315 | 2.6 | 0.0 | 0.00 | 0.00 | 0.00 | 71 | 933.6 |
| 20260501223713 | 44 | 315 | 12.2 | 0.0 | 0.00 | 0.00 | 0.00 | 71 | 933.6 |
| 20260501223604 | 44 | 315 | 13.9 | 0.0 | 0.00 | 0.00 | 0.00 | 71 | 933.7 |
| 20260501223456 | 44 | 315 | 7.8 | 0.0 | 0.00 | 0.00 | 0.00 | 71 | 933.6 |
| 20260501223348 | 44 | 315 | 13.9 | 0.0 | 0.00 | 0.00 | 0.00 | 71 | 933.6 |
| 20260501223240 | 43 | 315 | 10.4 | 0.0 | 0.00 | 0.00 | 0.00 | 71 | 933.6 |
| 20260501223131 | 43 | 315 | 26.1 | 0.0 | 0.00 | 0.00 | 0.00 | 71 | 933.6 |
| 20260501223023 | 43 | 315 | 8.7 | 0.0 | 0.00 | 0.00 | 0.00 | 71 | 933.7 |
| 20260501222915 | 43 | 315 | 8.7 | 0.0 | 0.00 | 0.00 | 0.00 | 71 | 933.7 |
| 20260501222807 | 43 | 315 | 7.0 | 0.0 | 0.00 | 0.00 | 0.00 | 71 | 933.7 |
| 20260501222658 | 43 | 315 | 12.2 | 0.0 | 0.00 | 0.00 | 0.00 | 71 | 933.7 |
| 20260501222550 | 43 | 315 | 1.7 | 0.0 | 0.00 | 0.00 | 0.00 | 71 | 933.7 |
| 20260501222442 | 43 | 315 | 11.3 | 0.0 | 0.00 | 0.00 | 0.00 | 71 | 933.7 |
| 20260501222333 | 43 | 315 | 8.7 | 0.0 | 0.00 | 0.00 | 0.00 | 71 | 933.7 |
| 20260501222225 | 43 | 315 | 3.5 | 0.0 | 0.00 | 0.00 | 0.00 | 70 | 933.8 |
| 20260501222117 | 43 | 315 | 13.0 | 0.0 | 0.00 | 0.00 | 0.00 | 70 | 933.7 |
| 20260501222009 | 43 | 315 | 5.2 | 0.0 | 0.00 | 0.00 | 0.00 | 70 | 933.7 |
| 20260501221900 | 43 | 315 | 7.8 | 0.0 | 0.00 | 0.00 | 0.00 | 70 | 933.7 |
| 20260501221752 | 43 | 315 | 6.1 | 0.0 | 0.00 | 0.00 | 0.00 | 70 | 933.7 |
| 20260501221644 | 43 | 315 | 1.7 | 0.0 | 0.00 | 0.00 | 0.00 | 70 | 933.7 |
| 20260501221536 | 43 | 315 | 14.8 | 0.0 | 0.00 | 0.00 | 0.00 | 70 | 933.7 |
| 20260501221427 | 43 | 315 | 1.7 | 0.0 | 0.00 | 0.00 | 0.00 | 70 | 933.7 |
| 20260501221319 | 43 | 315 | 7.8 | 0.0 | 0.00 | 0.00 | 0.00 | 70 | 933.7 |
| 20260501221211 | 43 | 315 | 0.0 | 0.0 | 0.00 | 0.00 | 0.00 | 70 | 933.7 |
| 20260501221103 | 43 | 315 | 0.0 | 0.0 | 0.00 | 0.00 | 0.00 | 70 | 933.7 |
| 20260501220954 | 43 | 0 | 7.0 | 0.0 | 0.00 | 0.00 | 0.00 | 70 | 933.8 |
| 20260501220846 | 43 | 0 | 0.0 | 0.0 | 0.00 | 0.00 | 0.00 | 70 | 933.8 |
| 20260501220738 | 43 | 315 | 0.0 | 0.0 | 0.00 | 0.00 | 0.00 | 71 | 933.8 |
| 20260501220629 | 43 | 180 | 6.1 | 0.0 | 0.00 | 0.00 | 0.00 | 70 | 933.8 |
| 20260501220521 | 43 | 180 | 6.1 | 0.0 | 0.00 | 0.00 | 0.00 | 70 | 933.8 |
| 20260501220304 | 43 | 225 | 0.0 | 0.0 | 0.00 | 0.00 | 0.00 | 70 | 933.8 |
| 20260501220156 | 43 | 315 | 1.7 | 0.0 | 0.00 | 0.00 | 0.00 | 70 | 933.8 |
| 20260501220048 | 43 | 0 | 9.6 | 0.0 | 0.00 | 0.00 | 0.00 | 70 | 933.8 |
| 20260501215940 | 43 | 315 | 6.1 | 0.0 | 0.00 | 0.00 | 0.00 | 70 | 933.8 |
| 20260501215831 | 43 | 315 | 6.1 | 0.0 | 0.00 | 0.00 | 0.00 | 70 | 933.8 |
| 20260501215723 | 43 | 315 | 0.9 | 0.0 | 0.00 | 0.00 | 0.00 | 70 | 933.8 |
| 20260501215615 | 43 | 315 | 7.0 | 0.0 | 0.00 | 0.00 | 0.00 | 70 | 933.8 |
| 20260501215507 | 43 | 315 | 0.0 | 0.0 | 0.00 | 0.00 | 0.00 | 70 | 933.8 |
| 20260501215358 | 43 | 315 | 1.7 | 0.0 | 0.00 | 0.00 | 0.00 | 70 | 933.8 |
| 20260501215250 | 43 | 315 | 1.7 | 0.0 | 0.00 | 0.00 | 0.00 | 70 | 933.8 |
| 20260501215142 | 43 | 315 | 3.5 | 0.0 | 0.00 | 0.00 | 0.00 | 70 | 933.8 |
| 20260501215033 | 43 | 315 | 1.7 | 0.0 | 0.00 | 0.00 | 0.00 | 70 | 933.8 |
| 20260501214925 | 43 | 315 | 7.0 | 0.0 | 0.00 | 0.00 | 0.00 | 70 | 933.8 |
| 20260501214817 | 43 | 315 | 3.5 | 0.0 | 0.00 | 0.00 | 0.00 | 69 | 933.8 |
| 20260501214709 | 43 | 315 | 0.0 | 0.0 | 0.00 | 0.00 | 0.00 | 69 | 933.8 |
| 20260501214600 | 43 | 315 | 0.0 | 0.0 | 0.00 | 0.00 | 0.00 | 69 | 933.8 |
| 20260501214452 | 43 | 315 | 1.7 | 0.0 | 0.00 | 0.00 | 0.00 | 69 | 933.8 |
| 20260501214344 | 44 | 0 | 0.9 | 0.0 | 0.00 | 0.00 | 0.00 | 69 | 933.9 |
| 20260501214235 | 44 | 315 | 1.7 | 0.0 | 0.00 | 0.00 | 0.00 | 69 | 933.8 |
| 20260501214127 | 44 | 315 | 0.0 | 0.0 | 0.00 | 0.00 | 0.00 | 69 | 933.8 |
| 20260501214019 | 44 | 0 | 0.0 | 0.0 | 0.00 | 0.00 | 0.00 | 69 | 933.8 |
| 20260501213911 | 44 | 0 | 14.8 | 0.0 | 0.00 | 0.00 | 0.00 | 70 | 933.8 |
| 20260501213802 | 44 | 315 | 6.1 | 0.0 | 0.00 | 0.00 | 0.00 | 70 | 933.9 |
| 20260501213654 | 44 | 315 | 16.5 | 0.0 | 0.00 | 0.00 | 0.00 | 70 | 933.8 |
| 20260501213546 | 44 | 315 | 18.2 | 0.0 | 0.00 | 0.00 | 0.00 | 70 | 933.8 |
| 20260501213438 | 45 | 0 | 5.2 | 0.0 | 0.00 | 0.00 | 0.00 | 70 | 933.8 |
| 20260501213329 | 45 | 315 | 0.9 | 0.0 | 0.00 | 0.00 | 0.00 | 70 | 933.8 |
| 20260501213221 | 45 | 315 | 7.0 | 0.0 | 0.00 | 0.00 | 0.00 | 70 | 933.8 |
| 20260501213113 | 45 | 315 | 14.8 | 0.0 | 0.00 | 0.00 | 0.00 | 70 | 933.8 |
| 20260501213004 | 45 | 315 | 9.6 | 0.0 | 0.00 | 0.00 | 0.00 | 70 | 933.8 |
| 20260501212856 | 45 | 315 | 7.8 | 0.0 | 0.00 | 0.00 | 0.00 | 70 | 933.9 |
| 20260501212640 | 45 | 315 | 13.0 | 0.0 | 0.00 | 0.00 | 0.00 | 70 | 933.9 |
| 20260501212531 | 45 | 315 | 7.8 | 0.0 | 0.00 | 0.00 | 0.00 | 70 | 933.8 |
| 20260501212423 | 45 | 315 | 3.5 | 0.0 | 0.00 | 0.00 | 0.00 | 70 | 933.8 |
| 20260501212315 | 45 | 315 | 8.7 | 0.0 | 0.00 | 0.00 | 0.00 | 70 | 933.9 |
| 20260501212207 | 45 | 315 | 5.2 | 0.0 | 0.00 | 0.00 | 0.00 | 70 | 933.9 |
| 20260501212058 | 45 | 315 | 10.4 | 0.0 | 0.00 | 0.00 | 0.00 | 70 | 933.8 |
| 20260501211950 | 45 | 315 | 12.2 | 0.0 | 0.00 | 0.00 | 0.00 | 70 | 933.8 |
| 20260501211842 | 45 | 315 | 2.6 | 0.0 | 0.00 | 0.00 | 0.00 | 70 | 933.8 |
| 20260501211733 | 45 | 315 | 7.0 | 0.0 | 0.00 | 0.00 | 0.00 | 70 | 933.8 |
| 20260501211625 | 45 | 315 | 3.5 | 0.0 | 0.00 | 0.00 | 0.00 | 70 | 933.8 |
| 20260501211517 | 45 | 315 | 19.1 | 0.0 | 0.00 | 0.00 | 0.00 | 70 | 933.8 |
| 20260501211409 | 45 | 315 | 7.0 | 0.0 | 0.00 | 0.00 | 0.00 | 70 | 933.8 |
| 20260501211300 | 45 | 315 | 13.9 | 0.0 | 0.00 | 0.00 | 0.00 | 70 | 933.8 |
| 20260501211152 | 45 | 315 | 9.6 | 0.0 | 0.00 | 0.00 | 0.00 | 70 | 933.8 |
| 20260501211044 | 45 | 315 | 14.8 | 0.0 | 0.00 | 0.00 | 0.00 | 70 | 933.7 |
| 20260501210935 | 45 | 315 | 11.3 | 0.0 | 0.00 | 0.00 | 0.00 | 70 | 933.8 |
| 20260501210827 | 45 | 315 | 21.7 | 0.0 | 0.00 | 0.00 | 0.00 | 70 | 933.7 |
| 20260501210719 | 45 | 315 | 9.6 | 0.0 | 0.00 | 0.00 | 0.00 | 70 | 933.8 |
| 20260501210611 | 45 | 315 | 9.6 | 0.0 | 0.00 | 0.00 | 0.00 | 70 | 933.8 |
| 20260501210502 | 45 | 315 | 16.5 | 0.0 | 0.00 | 0.00 | 0.00 | 70 | 933.8 |
| 20260501210354 | 45 | 315 | 12.2 | 0.0 | 0.00 | 0.00 | 0.00 | 70 | 933.8 |
| 20260501210246 | 45 | 315 | 7.8 | 0.0 | 0.00 | 0.00 | 0.00 | 70 | 933.8 |
| 20260501210138 | 45 | 0 | 14.8 | 0.0 | 0.00 | 0.00 | 0.00 | 70 | 933.7 |
| 20260501210029 | 45 | 315 | 8.7 | 0.0 | 0.00 | 0.00 | 0.00 | 70 | 933.8 |
| 20260501205921 | 45 | 0 | 1.7 | 0.0 | 0.00 | 0.00 | 0.00 | 70 | 933.8 |
| 20260501205813 | 45 | 315 | 23.5 | 0.0 | 0.00 | 0.00 | 0.00 | 70 | 933.8 |
| 20260501205704 | 45 | 315 | 7.0 | 0.0 | 0.00 | 0.00 | 0.00 | 69 | 933.8 |
| 20260501205556 | 45 | 315 | 1.7 | 0.0 | 0.00 | 0.00 | 0.00 | 69 | 933.8 |
| 20260501205448 | 45 | 0 | 5.2 | 0.0 | 0.00 | 0.00 | 0.00 | 69 | 933.8 |
| 20260501205340 | 45 | 315 | 3.5 | 0.0 | 0.00 | 0.00 | 0.00 | 69 | 933.8 |
| 20260501205231 | 46 | 315 | 2.6 | 0.0 | 0.00 | 0.00 | 0.00 | 69 | 933.8 |
| 20260501205123 | 46 | 315 | 7.8 | 0.0 | 0.00 | 0.00 | 0.00 | 70 | 933.8 |
| 20260501205015 | 46 | 315 | 17.4 | 0.0 | 0.00 | 0.00 | 0.00 | 70 | 933.8 |
| 20260501204907 | 46 | 315 | 6.1 | 0.0 | 0.00 | 0.00 | 0.00 | 70 | 933.8 |
| 20260501204758 | 46 | 0 | 12.2 | 0.0 | 0.00 | 0.00 | 0.00 | 69 | 933.8 |
| 20260501204650 | 46 | 0 | 26.1 | 0.0 | 0.00 | 0.00 | 0.00 | 69 | 933.8 |
| 20260501204542 | 46 | 0 | 0.9 | 0.0 | 0.00 | 0.00 | 0.00 | 69 | 933.8 |
| 20260501204433 | 46 | 315 | 9.6 | 0.0 | 0.00 | 0.00 | 0.00 | 69 | 933.7 |
| 20260501204325 | 46 | 315 | 10.4 | 0.0 | 0.00 | 0.00 | 0.00 | 69 | 933.7 |
| 20260501204217 | 46 | 315 | 7.0 | 0.0 | 0.00 | 0.00 | 0.00 | 69 | 933.7 |
| 20260501204109 | 46 | 0 | 9.6 | 0.0 | 0.00 | 0.00 | 0.00 | 69 | 933.7 |
| 20260501204000 | 46 | 315 | 0.9 | 0.0 | 0.00 | 0.00 | 0.00 | 69 | 933.7 |
| 20260501203852 | 46 | 315 | 7.8 | 0.0 | 0.00 | 0.00 | 0.00 | 69 | 933.7 |
| 20260501203744 | 46 | 0 | 1.7 | 0.0 | 0.00 | 0.00 | 0.00 | 69 | 933.7 |
| 20260501203635 | 46 | 315 | 8.7 | 0.0 | 0.00 | 0.00 | 0.00 | 69 | 933.7 |
| 20260501203527 | 46 | 315 | 1.7 | 0.0 | 0.00 | 0.00 | 0.00 | 69 | 933.7 |
| 20260501203419 | 47 | 315 | 1.7 | 0.0 | 0.00 | 0.00 | 0.00 | 69 | 933.6 |
| 20260501203311 | 47 | 315 | 0.0 | 0.0 | 0.00 | 0.00 | 0.00 | 69 | 933.6 |
| 20260501203202 | 47 | 270 | 13.0 | 0.0 | 0.00 | 0.00 | 0.00 | 69 | 933.6 |
| 20260501203054 | 47 | 0 | 0.0 | 0.0 | 0.00 | 0.00 | 0.00 | 69 | 933.5 |
| 20260501202946 | 47 | 315 | 0.0 | 0.0 | 0.00 | 0.00 | 0.00 | 69 | 933.6 |
| 20260501202838 | 47 | 0 | 10.4 | 0.0 | 0.01 | 0.00 | 0.00 | 69 | 933.6 |
| 20260501202729 | 47 | 0 | 3.5 | 0.0 | 0.01 | 0.00 | 0.00 | 69 | 933.6 |
| 20260501202621 | 47 | 0 | 5.2 | 0.0 | 0.01 | 0.00 | 0.00 | 69 | 933.6 |
| 20260501202513 | 48 | 315 | 2.6 | 0.0 | 0.01 | 0.00 | 0.00 | 69 | 933.6 |
| 20260501202404 | 48 | 0 | 0.9 | 0.0 | 0.01 | 0.00 | 0.00 | 70 | 933.6 |
| 20260501202148 | 48 | 315 | 7.0 | 0.0 | 0.01 | 0.00 | 0.00 | 70 | 933.6 |
| 20260501202040 | 48 | 315 | 13.9 | 0.0 | 0.01 | 0.00 | 0.00 | 70 | 933.6 |
| 20260501201931 | 48 | 0 | 20.9 | 0.0 | 0.01 | 0.00 | 0.00 | 70 | 933.6 |
| 20260501201823 | 49 | 315 | 40.0 | 0.0 | 0.01 | 0.00 | 0.00 | 70 | 933.5 |
| 20260501201715 | 49 | 0 | 18.2 | 0.0 | 0.01 | 0.00 | 0.00 | 70 | 933.6 |
| 20260501201606 | 49 | 315 | 3.5 | 0.0 | 0.01 | 0.00 | 0.00 | 71 | 933.5 |
| 20260501201458 | 49 | 0 | 9.6 | 0.0 | 0.01 | 0.00 | 0.00 | 71 | 933.5 |
| 20260501201350 | 49 | 45 | 30.4 | 0.0 | 0.01 | 0.00 | 0.00 | 71 | 933.5 |
| 20260501201242 | 49 | 0 | 27.8 | 0.0 | 0.01 | 0.00 | 0.00 | 71 | 933.5 |
| 20260501201133 | 49 | 0 | 6.1 | 0.0 | 0.01 | 0.00 | 0.00 | 71 | 933.5 |
| 20260501201025 | 49 | 0 | 13.0 | 0.0 | 0.01 | 0.00 | 0.00 | 71 | 933.5 |
| 20260501200917 | 49 | 0 | 25.2 | 0.0 | 0.01 | 0.00 | 0.00 | 71 | 933.5 |
| 20260501200809 | 49 | 90 | 13.0 | 0.0 | 0.01 | 0.00 | 0.00 | 71 | 933.5 |
| 20260501200700 | 49 | 225 | 13.0 | 0.0 | 0.01 | 0.00 | 0.00 | 71 | 933.5 |
| 20260501200552 | 49 | 0 | 38.2 | 0.0 | 0.01 | 0.00 | 0.00 | 71 | 933.5 |
| 20260501200444 | 49 | 0 | 27.8 | 0.0 | 0.01 | 0.00 | 0.00 | 71 | 933.5 |
| 20260501200335 | 49 | 45 | 8.7 | 0.0 | 0.01 | 0.00 | 0.00 | 71 | 933.5 |
| 20260501200227 | 49 | 270 | 66.9 | 0.0 | 0.01 | 0.00 | 0.00 | 71 | 933.5 |
| 20260501200119 | 49 | 0 | 19.1 | 0.0 | 0.01 | 0.00 | 0.00 | 71 | 933.5 |
| 20260501200011 | 49 | 0 | 20.9 | 0.0 | 0.01 | 0.00 | 0.00 | 71 | 933.5 |
| 20260501195902 | 49 | 0 | 38.2 | 0.0 | 0.01 | 0.00 | 0.00 | 71 | 933.5 |
| 20260501195754 | 49 | 315 | 22.6 | 0.0 | 0.01 | 0.00 | 0.00 | 71 | 933.5 |
| 20260501195646 | 49 | 0 | 20.9 | 0.0 | 0.01 | 0.00 | 0.00 | 71 | 933.5 |
| 20260501195538 | 49 | 0 | 22.6 | 0.0 | 0.01 | 0.00 | 0.00 | 71 | 933.5 |
| 20260501195429 | 49 | 0 | 20.0 | 0.0 | 0.01 | 0.00 | 0.00 | 71 | 933.5 |
| 20260501195321 | 49 | 0 | 6.1 | 0.0 | 0.01 | 0.00 | 0.00 | 71 | 933.5 |
| 20260501195213 | 49 | 315 | 33.9 | 0.0 | 0.01 | 0.00 | 0.00 | 71 | 933.4 |
| 20260501195104 | 49 | 0 | 61.7 | 0.0 | 0.01 | 0.00 | 0.00 | 71 | 933.4 |
| 20260501194956 | 49 | 0 | 71.3 | 0.0 | 0.01 | 0.00 | 0.00 | 70 | 933.4 |
| 20260501194848 | 49 | 45 | 3.5 | 0.0 | 0.01 | 0.00 | 0.00 | 70 | 933.4 |
| 20260501194740 | 49 | 90 | 38.2 | 0.0 | 0.01 | 0.00 | 0.00 | 70 | 933.4 |
| 20260501194631 | 49 | 0 | 27.8 | 0.0 | 0.01 | 0.00 | 0.00 | 70 | 933.4 |
| 20260501194523 | 49 | 0 | 46.9 | 0.0 | 0.01 | 0.00 | 0.00 | 70 | 933.4 |
| 20260501194415 | 49 | 0 | 14.8 | 0.0 | 0.01 | 0.00 | 0.00 | 70 | 933.4 |
| 20260501194307 | 50 | 0 | 31.3 | 0.0 | 0.01 | 0.00 | 0.00 | 70 | 933.4 |
| 20260501194158 | 50 | 0 | 17.4 | 0.0 | 0.01 | 0.00 | 0.00 | 70 | 933.4 |
| 20260501194050 | 50 | 0 | 19.1 | 0.0 | 0.01 | 0.00 | 0.00 | 70 | 933.4 |
| 20260501193942 | 50 | 0 | 33.9 | 0.0 | 0.00 | 0.00 | 0.00 | 70 | 933.4 |
| 20260501193833 | 50 | 0 | 38.2 | 0.0 | 0.00 | 0.00 | 0.00 | 71 | 933.4 |
| 20260501193725 | 50 | 0 | 8.7 | 0.0 | 0.00 | 0.00 | 0.00 | 71 | 933.4 |
| 20260501193617 | 50 | 45 | 7.8 | 0.0 | 0.00 | 0.00 | 0.00 | 71 | 933.4 |
| 20260501193509 | 50 | 0 | 54.7 | 0.0 | 0.00 | 0.00 | 0.00 | 71 | 933.4 |
| 20260501193400 | 50 | 45 | 37.4 | 0.0 | 0.00 | 0.00 | 0.00 | 71 | 933.3 |
| 20260501193252 | 50 | 0 | 24.3 | 0.0 | 0.00 | 0.00 | 0.00 | 71 | 933.3 |
| 20260501193144 | 50 | 0 | 25.2 | 0.0 | 0.00 | 0.00 | 0.00 | 71 | 933.3 |
| 20260501193035 | 50 | 0 | 19.1 | 0.0 | 0.00 | 0.00 | 0.00 | 71 | 933.3 |
| 20260501192927 | 50 | 45 | 47.8 | 0.0 | 0.00 | 0.00 | 0.00 | 71 | 933.3 |
| 20260501192819 | 50 | 90 | 17.4 | 0.0 | 0.00 | 0.00 | 0.00 | 71 | 933.3 |
| 20260501192711 | 50 | 0 | 21.7 | 0.0 | 0.00 | 0.00 | 0.00 | 71 | 933.3 |
| 20260501192602 | 50 | 45 | 18.2 | 0.0 | 0.00 | 0.00 | 0.00 | 71 | 933.3 |
| 20260501192454 | 50 | 0 | 29.5 | 0.0 | 0.00 | 0.00 | 0.00 | 71 | 933.3 |
| 20260501192346 | 50 | 0 | 25.2 | 0.0 | 0.00 | 0.00 | 0.00 | 71 | 933.3 |
| 20260501192238 | 50 | 0 | 39.1 | 0.0 | 0.00 | 0.00 | 0.00 | 71 | 933.3 |
| 20260501192129 | 50 | 0 | 19.1 | 0.0 | 0.00 | 0.00 | 0.00 | 71 | 933.3 |
| 20260501192021 | 50 | 315 | 16.5 | 0.0 | 0.00 | 0.00 | 0.00 | 71 | 933.3 |
| 20260501191913 | 50 | 0 | 73.0 | 0.0 | 0.00 | 0.00 | 0.00 | 71 | 933.3 |
| 20260501191804 | 50 | 0 | 23.5 | 0.0 | 0.00 | 0.00 | 0.00 | 71 | 933.2 |
| 20260501191656 | 50 | 45 | 14.8 | 0.0 | 0.00 | 0.00 | 0.00 | 71 | 933.3 |
| 20260501191548 | 50 | 0 | 30.4 | 0.0 | 0.00 | 0.00 | 0.00 | 71 | 933.3 |
| 20260501191440 | 50 | 0 | 29.5 | 0.0 | 0.00 | 0.00 | 0.00 | 71 | 933.2 |
| 20260501191331 | 50 | 0 | 41.7 | 0.0 | 0.00 | 0.00 | 0.00 | 71 | 933.3 |
| 20260501191223 | 50 | 0 | 28.7 | 0.0 | 0.00 | 0.00 | 0.00 | 71 | 933.3 |
| 20260501191115 | 50 | 315 | 34.8 | 0.0 | 0.00 | 0.00 | 0.00 | 71 | 933.2 |
| 20260501191007 | 51 | 0 | 6.1 | 0.0 | 0.00 | 0.00 | 0.00 | 70 | 933.3 |
| 20260501190858 | 51 | 315 | 13.0 | 0.0 | 0.00 | 0.00 | 0.00 | 71 | 933.3 |
| 20260501190750 | 51 | 0 | 22.6 | 0.0 | 0.00 | 0.00 | 0.00 | 71 | 933.3 |
| 20260501190642 | 51 | 0 | 29.5 | 0.0 | 0.00 | 0.00 | 0.00 | 71 | 933.3 |
| 20260501190533 | 51 | 0 | 41.7 | 0.0 | 0.00 | 0.00 | 0.00 | 71 | 933.3 |
| 20260501190425 | 51 | 0 | 13.9 | 0.0 | 0.00 | 0.00 | 0.00 | 71 | 933.3 |
| 20260501190317 | 51 | 315 | 13.0 | 0.0 | 0.00 | 0.00 | 0.00 | 71 | 933.3 |
| 20260501190209 | 51 | 90 | 27.8 | 0.0 | 0.00 | 0.00 | 0.00 | 71 | 933.3 |
| 20260501190100 | 51 | 0 | 8.7 | 0.0 | 0.00 | 0.00 | 0.00 | 71 | 933.3 |
| 20260501185952 | 51 | 0 | 15.6 | 0.0 | 0.00 | 0.00 | 0.00 | 71 | 933.3 |
| 20260501185844 | 51 | 315 | 0.9 | 0.0 | 0.00 | 0.00 | 0.00 | 71 | 933.4 |
| 20260501185735 | 51 | 0 | 33.0 | 0.0 | 0.00 | 0.00 | 0.00 | 71 | 933.4 |
| 20260501185627 | 51 | 0 | 14.8 | 0.0 | 0.00 | 0.00 | 0.00 | 71 | 933.3 |
| 20260501185519 | 51 | 135 | 39.1 | 0.0 | 0.00 | 0.00 | 0.00 | 71 | 933.3 |
| 20260501185411 | 51 | 0 | 44.3 | 0.0 | 0.00 | 0.00 | 0.00 | 71 | 933.3 |
| 20260501185305 | 51 | 0 | 14.8 | 0.0 | 0.00 | 0.00 | 0.00 | 71 | 933.3 |
| 20260501185154 | 51 | 315 | 61.7 | 0.0 | 0.00 | 0.00 | 0.00 | 71 | 933.2 |
| 20260501185046 | 51 | 315 | 40.0 | 0.0 | 0.00 | 0.00 | 0.00 | 71 | 933.2 |
| 20260501184938 | 51 | 0 | 46.1 | 0.0 | 0.00 | 0.00 | 0.00 | 71 | 933.2 |
| 20260501184830 | 51 | 45 | 57.4 | 0.0 | 0.00 | 0.00 | 0.00 | 71 | 933.2 |
| 20260501184721 | 51 | 315 | 27.8 | 0.0 | 0.00 | 0.00 | 0.00 | 71 | 933.2 |
| 20260501184613 | 51 | 315 | 7.0 | 0.0 | 0.00 | 0.00 | 0.00 | 71 | 933.1 |
| 20260501184505 | 51 | 0 | 21.7 | 0.0 | 0.00 | 0.00 | 0.00 | 71 | 933.3 |
| 20260501184356 | 51 | 270 | 7.0 | 0.0 | 0.00 | 0.00 | 0.00 | 70 | 933.2 |
| 20260501184248 | 51 | 0 | 8.7 | 0.0 | 0.00 | 0.00 | 0.00 | 70 | 933.2 |
| 20260501184140 | 51 | 315 | 39.1 | 0.0 | 0.00 | 0.00 | 0.00 | 70 | 933.2 |
| 20260501184031 | 51 | 0 | 49.5 | 0.0 | 0.00 | 0.00 | 0.00 | 70 | 933.1 |
| 20260501183923 | 51 | 0 | 18.2 | 0.0 | 0.00 | 0.00 | 0.00 | 70 | 933.1 |
| 20260501183815 | 51 | 0 | 9.6 | 0.0 | 0.00 | 0.00 | 0.00 | 70 | 933.2 |
| 20260501183706 | 51 | 0 | 14.8 | 0.0 | 0.00 | 0.00 | 0.00 | 70 | 933.1 |
| 20260501183558 | 51 | 45 | 22.6 | 0.0 | 0.00 | 0.00 | 0.00 | 70 | 933.1 |
| 20260501183450 | 51 | 0 | 12.2 | 0.0 | 0.00 | 0.00 | 0.00 | 70 | 933.2 |
| 20260501183342 | 51 | 315 | 7.8 | 0.0 | 0.00 | 0.00 | 0.00 | 70 | 933.1 |
| 20260501183233 | 51 | 270 | 15.6 | 0.0 | 0.00 | 0.00 | 0.00 | 70 | 933.1 |
| 20260501183125 | 51 | 45 | 6.1 | 0.0 | 0.00 | 0.00 | 0.00 | 70 | 933.1 |
| 20260501183017 | 51 | 0 | 6.1 | 0.0 | 0.00 | 0.00 | 0.00 | 70 | 933.1 |
| 20260501182908 | 51 | 0 | 28.7 | 0.0 | 0.00 | 0.00 | 0.00 | 70 | 933.1 |
| 20260501182800 | 51 | 315 | 10.4 | 0.0 | 0.00 | 0.00 | 0.00 | 70 | 933.0 |
| 20260501182652 | 51 | 0 | 18.2 | 0.0 | 0.00 | 0.00 | 0.00 | 70 | 933.0 |
| 20260501182544 | 52 | 0 | 45.2 | 0.0 | 0.00 | 0.00 | 0.00 | 70 | 933.0 |
| 20260501182435 | 52 | 45 | 17.4 | 0.0 | 0.00 | 0.00 | 0.00 | 70 | 933.0 |
| 20260501182327 | 52 | 0 | 24.3 | 0.0 | 0.00 | 0.00 | 0.00 | 70 | 933.1 |
| 20260501182218 | 52 | 0 | 24.3 | 0.0 | 0.00 | 0.00 | 0.00 | 70 | 933.0 |
| 20260501182110 | 52 | 45 | 40.0 | 0.0 | 0.00 | 0.00 | 0.00 | 70 | 933.0 |